<?xml version="1.0" encoding="UTF-8" standalone="no" ?>
<gpx xmlns="http://www.topografix.com/GPX/1/1" xmlns:xsi="http://www.w3.org/2001/XMLSchema-instance" xsi:schemaLocation="http://www.topografix.com/GPX/1/1 http://www.topografix.com/GPX/1/1/gpx.xsd" version="1.1" creator="VisuGPX - https://www.visugpx.com">
  <metadata>
    <name>Mazères - Baronies par plat d'Asque</name>
  </metadata>
  <trk>
    <name><![CDATA[Mazères - Baronies par plat d'Asque]]></name>
    <trkseg>
      <trkpt lat="43.06686" lon="0.44068">
        <ele>488.496275</ele>
        <time>2022-08-09T13:43:38.482Z</time>
      </trkpt>
      <trkpt lat="43.06698" lon="0.44076">
        <ele>488.496275</ele>
        <time>2022-08-09T13:43:41.261Z</time>
      </trkpt>
      <trkpt lat="43.0679" lon="0.44188">
        <ele>488.471426</ele>
        <time>2022-08-09T13:44:06.355Z</time>
      </trkpt>
      <trkpt lat="43.0683" lon="0.44204">
        <ele>488.448883</ele>
        <time>2022-08-09T13:44:14.663Z</time>
      </trkpt>
      <trkpt lat="43.06858" lon="0.44204">
        <ele>488.433775</ele>
        <time>2022-08-09T13:44:20.256Z</time>
      </trkpt>
      <trkpt lat="43.06885" lon="0.44212">
        <ele>488.418992</ele>
        <time>2022-08-09T13:44:25.665Z</time>
      </trkpt>
      <trkpt lat="43.06894" lon="0.44201">
        <ele>488.412348</ele>
        <time>2022-08-09T13:44:28.137Z</time>
      </trkpt>
      <trkpt lat="43.06903" lon="0.44199">
        <ele>488.407348</ele>
        <time>2022-08-09T13:44:29.907Z</time>
      </trkpt>
      <trkpt lat="43.06943" lon="0.44214">
        <ele>488.343757</ele>
        <time>2022-08-09T13:44:38.042Z</time>
      </trkpt>
      <trkpt lat="43.0697" lon="0.44188">
        <ele>488.273003</ele>
        <time>2022-08-09T13:44:44.461Z</time>
      </trkpt>
      <trkpt lat="43.07026" lon="0.44127">
        <ele>488.122734</ele>
        <time>2022-08-09T13:44:57.631Z</time>
      </trkpt>
      <trkpt lat="43.07065" lon="0.44096">
        <ele>488.028007</ele>
        <time>2022-08-09T13:45:06.684Z</time>
      </trkpt>
      <trkpt lat="43.07101" lon="0.44078">
        <ele>488.326396</ele>
        <time>2022-08-09T13:45:15.043Z</time>
      </trkpt>
      <trkpt lat="43.07134" lon="0.44065">
        <ele>488.633447</ele>
        <time>2022-08-09T13:45:23.121Z</time>
      </trkpt>
      <trkpt lat="43.07282" lon="0.44005">
        <ele>490.243548</ele>
        <time>2022-08-09T13:46:01.607Z</time>
      </trkpt>
      <trkpt lat="43.07293" lon="0.44004">
        <ele>490.389872</ele>
        <time>2022-08-09T13:46:04.416Z</time>
      </trkpt>
      <trkpt lat="43.07305" lon="0.44005">
        <ele>490.574067</ele>
        <time>2022-08-09T13:46:07.723Z</time>
      </trkpt>
      <trkpt lat="43.07385" lon="0.44021">
        <ele>491.743907</ele>
        <time>2022-08-09T13:46:29.464Z</time>
      </trkpt>
      <trkpt lat="43.07427" lon="0.44022">
        <ele>492.364062</ele>
        <time>2022-08-09T13:46:40.476Z</time>
      </trkpt>
      <trkpt lat="43.07447" lon="0.44017">
        <ele>492.669496</ele>
        <time>2022-08-09T13:46:45.533Z</time>
      </trkpt>
      <trkpt lat="43.07452" lon="0.44022">
        <ele>492.771057</ele>
        <time>2022-08-09T13:46:47.061Z</time>
      </trkpt>
      <trkpt lat="43.07467" lon="0.44001">
        <ele>493.103522</ele>
        <time>2022-08-09T13:46:51.355Z</time>
      </trkpt>
      <trkpt lat="43.07494" lon="0.43959">
        <ele>493.738732</ele>
        <time>2022-08-09T13:46:59.675Z</time>
      </trkpt>
      <trkpt lat="43.07549" lon="0.43844">
        <ele>495.247725</ele>
        <time>2022-08-09T13:47:21.659Z</time>
      </trkpt>
      <trkpt lat="43.07569" lon="0.43741">
        <ele>496.233736</ele>
        <time>2022-08-09T13:47:37.540Z</time>
      </trkpt>
      <trkpt lat="43.0757" lon="0.43733">
        <ele>496.308742</ele>
        <time>2022-08-09T13:47:38.683Z</time>
      </trkpt>
      <trkpt lat="43.07576" lon="0.43707">
        <ele>496.560761</ele>
        <time>2022-08-09T13:47:42.521Z</time>
      </trkpt>
      <trkpt lat="43.0756" lon="0.4363">
        <ele>497.294966</ele>
        <time>2022-08-09T13:47:56.933Z</time>
      </trkpt>
      <trkpt lat="43.07573" lon="0.43517">
        <ele>497.720878</ele>
        <time>2022-08-09T13:48:16.342Z</time>
      </trkpt>
      <trkpt lat="43.07565" lon="0.43415">
        <ele>498.10736</ele>
        <time>2022-08-09T13:48:32.320Z</time>
      </trkpt>
      <trkpt lat="43.07575" lon="0.43337">
        <ele>498.245132</ele>
        <time>2022-08-09T13:48:44.154Z</time>
      </trkpt>
      <trkpt lat="43.07593" lon="0.43282">
        <ele>498.28797</ele>
        <time>2022-08-09T13:48:53.326Z</time>
      </trkpt>
      <trkpt lat="43.07588" lon="0.43161">
        <ele>498.373304</ele>
        <time>2022-08-09T13:49:11.127Z</time>
      </trkpt>
      <trkpt lat="43.07609" lon="0.43027">
        <ele>499.233261</ele>
        <time>2022-08-09T13:49:32.574Z</time>
      </trkpt>
      <trkpt lat="43.07622" lon="0.42983">
        <ele>499.565065</ele>
        <time>2022-08-09T13:49:41.184Z</time>
      </trkpt>
      <trkpt lat="43.07637" lon="0.42954">
        <ele>499.808503</ele>
        <time>2022-08-09T13:49:47.948Z</time>
      </trkpt>
      <trkpt lat="43.07665" lon="0.42881">
        <ele>500.894399</ele>
        <time>2022-08-09T13:50:04.627Z</time>
      </trkpt>
      <trkpt lat="43.07717" lon="0.42649">
        <ele>505.097163</ele>
        <time>2022-08-09T13:51:01.688Z</time>
      </trkpt>
      <trkpt lat="43.07758" lon="0.42507">
        <ele>506.420604</ele>
        <time>2022-08-09T13:51:30.018Z</time>
      </trkpt>
      <trkpt lat="43.07769" lon="0.42443">
        <ele>506.77273</ele>
        <time>2022-08-09T13:51:39.796Z</time>
      </trkpt>
      <trkpt lat="43.07762" lon="0.4244">
        <ele>506.692768</ele>
        <time>2022-08-09T13:51:40.885Z</time>
      </trkpt>
      <trkpt lat="43.07742" lon="0.42429">
        <ele>506.42531</ele>
        <time>2022-08-09T13:51:44.646Z</time>
      </trkpt>
      <trkpt lat="43.07625" lon="0.42371">
        <ele>504.898944</ele>
        <time>2022-08-09T13:52:04.638Z</time>
      </trkpt>
      <trkpt lat="43.07484" lon="0.42352">
        <ele>504.385338</ele>
        <time>2022-08-09T13:52:29.502Z</time>
      </trkpt>
      <trkpt lat="43.07484" lon="0.42081">
        <ele>506.476935</ele>
        <time>2022-08-09T13:53:19.246Z</time>
      </trkpt>
      <trkpt lat="43.0748" lon="0.42075">
        <ele>506.576474</ele>
        <time>2022-08-09T13:53:21.306Z</time>
      </trkpt>
      <trkpt lat="43.07445" lon="0.42078">
        <ele>507.172368</ele>
        <time>2022-08-09T13:53:31.185Z</time>
      </trkpt>
      <trkpt lat="43.07247" lon="0.42063">
        <ele>513.859714</ele>
        <time>2022-08-09T13:54:38.397Z</time>
      </trkpt>
      <trkpt lat="43.07222" lon="0.42068">
        <ele>514.9551</ele>
        <time>2022-08-09T13:54:48.263Z</time>
      </trkpt>
      <trkpt lat="43.07152" lon="0.42087">
        <ele>517.926078</ele>
        <time>2022-08-09T13:55:14.595Z</time>
      </trkpt>
      <trkpt lat="43.07146" lon="0.42089">
        <ele>518.182471</ele>
        <time>2022-08-09T13:55:17.099Z</time>
      </trkpt>
      <trkpt lat="43.07117" lon="0.42082">
        <ele>519.418825</ele>
        <time>2022-08-09T13:55:28.377Z</time>
      </trkpt>
      <trkpt lat="43.07022" lon="0.41987">
        <ele>524.732874</ele>
        <time>2022-08-09T13:56:12.691Z</time>
      </trkpt>
      <trkpt lat="43.06959" lon="0.41938">
        <ele>528.085409</ele>
        <time>2022-08-09T13:56:40.096Z</time>
      </trkpt>
      <trkpt lat="43.0689" lon="0.41873">
        <ele>533.330832</ele>
        <time>2022-08-09T13:57:16.321Z</time>
      </trkpt>
      <trkpt lat="43.06826" lon="0.41801">
        <ele>538.77993</ele>
        <time>2022-08-09T13:57:55.991Z</time>
      </trkpt>
      <trkpt lat="43.06769" lon="0.41727">
        <ele>544.110971</ele>
        <time>2022-08-09T13:58:37.598Z</time>
      </trkpt>
      <trkpt lat="43.0676" lon="0.4168">
        <ele>546.487019</ele>
        <time>2022-08-09T13:58:55.457Z</time>
      </trkpt>
      <trkpt lat="43.06765" lon="0.41625">
        <ele>549.263318</ele>
        <time>2022-08-09T13:59:15.063Z</time>
      </trkpt>
      <trkpt lat="43.06771" lon="0.41547">
        <ele>553.051981</ele>
        <time>2022-08-09T13:59:40.015Z</time>
      </trkpt>
      <trkpt lat="43.06818" lon="0.41454">
        <ele>555.238337</ele>
        <time>2022-08-09T14:00:10.441Z</time>
      </trkpt>
      <trkpt lat="43.06869" lon="0.4138">
        <ele>557.217501</ele>
        <time>2022-08-09T14:00:32.566Z</time>
      </trkpt>
      <trkpt lat="43.06849" lon="0.41343">
        <ele>557.40307</ele>
        <time>2022-08-09T14:00:38.576Z</time>
      </trkpt>
      <trkpt lat="43.06845" lon="0.41322">
        <ele>556.979121</ele>
        <time>2022-08-09T14:00:40.942Z</time>
      </trkpt>
      <trkpt lat="43.06849" lon="0.41226">
        <ele>555.044806</ele>
        <time>2022-08-09T14:00:51.051Z</time>
      </trkpt>
      <trkpt lat="43.06843" lon="0.41194">
        <ele>554.379151</ele>
        <time>2022-08-09T14:00:54.426Z</time>
      </trkpt>
      <trkpt lat="43.06833" lon="0.41177">
        <ele>553.934495</ele>
        <time>2022-08-09T14:00:56.741Z</time>
      </trkpt>
      <trkpt lat="43.06837" lon="0.41066">
        <ele>552.590287</ele>
        <time>2022-08-09T14:01:04.940Z</time>
      </trkpt>
      <trkpt lat="43.06837" lon="0.41053">
        <ele>552.533945</ele>
        <time>2022-08-09T14:01:05.956Z</time>
      </trkpt>
      <trkpt lat="43.06849" lon="0.41003">
        <ele>552.313759</ele>
        <time>2022-08-09T14:01:10.090Z</time>
      </trkpt>
      <trkpt lat="43.06908" lon="0.40831">
        <ele>552.881429</ele>
        <time>2022-08-09T14:01:38.468Z</time>
      </trkpt>
      <trkpt lat="43.06939" lon="0.40732">
        <ele>554.714029</ele>
        <time>2022-08-09T14:02:02.616Z</time>
      </trkpt>
      <trkpt lat="43.06946" lon="0.40688">
        <ele>555.481939</ele>
        <time>2022-08-09T14:02:11.251Z</time>
      </trkpt>
      <trkpt lat="43.06942" lon="0.40433">
        <ele>555.551394</ele>
        <time>2022-08-09T14:02:39.051Z</time>
      </trkpt>
      <trkpt lat="43.06963" lon="0.40248">
        <ele>551.659469</ele>
        <time>2022-08-09T14:02:53.071Z</time>
      </trkpt>
      <trkpt lat="43.06957" lon="0.40198">
        <ele>550.483544</ele>
        <time>2022-08-09T14:02:56.682Z</time>
      </trkpt>
      <trkpt lat="43.06961" lon="0.40171">
        <ele>549.84331</ele>
        <time>2022-08-09T14:02:58.619Z</time>
      </trkpt>
      <trkpt lat="43.06983" lon="0.40118">
        <ele>547.767673</ele>
        <time>2022-08-09T14:03:02.877Z</time>
      </trkpt>
      <trkpt lat="43.07027" lon="0.40058">
        <ele>544.888671</ele>
        <time>2022-08-09T14:03:08.854Z</time>
      </trkpt>
      <trkpt lat="43.07076" lon="0.40017">
        <ele>542.169779</ele>
        <time>2022-08-09T14:03:14.441Z</time>
      </trkpt>
      <trkpt lat="43.07096" lon="0.39978">
        <ele>540.228252</ele>
        <time>2022-08-09T14:03:17.627Z</time>
      </trkpt>
      <trkpt lat="43.07117" lon="0.39899">
        <ele>536.162541</ele>
        <time>2022-08-09T14:03:23.180Z</time>
      </trkpt>
      <trkpt lat="43.07116" lon="0.39796">
        <ele>531.232108</ele>
        <time>2022-08-09T14:03:29.908Z</time>
      </trkpt>
      <trkpt lat="43.07136" lon="0.39776">
        <ele>529.621153</ele>
        <time>2022-08-09T14:03:32.083Z</time>
      </trkpt>
      <trkpt lat="43.07255" lon="0.39705">
        <ele>525.130448</ele>
        <time>2022-08-09T14:03:44.270Z</time>
      </trkpt>
      <trkpt lat="43.07266" lon="0.39685">
        <ele>524.492065</ele>
        <time>2022-08-09T14:03:46.199Z</time>
      </trkpt>
      <trkpt lat="43.07296" lon="0.39619">
        <ele>524.384949</ele>
        <time>2022-08-09T14:03:59.113Z</time>
      </trkpt>
      <trkpt lat="43.07312" lon="0.39596">
        <ele>525.303633</ele>
        <time>2022-08-09T14:04:04.898Z</time>
      </trkpt>
      <trkpt lat="43.07323" lon="0.39578">
        <ele>526.004124</ele>
        <time>2022-08-09T14:04:10.406Z</time>
      </trkpt>
      <trkpt lat="43.07335" lon="0.39547">
        <ele>527.030844</ele>
        <time>2022-08-09T14:04:19.056Z</time>
      </trkpt>
      <trkpt lat="43.07343" lon="0.39454">
        <ele>529.771569</ele>
        <time>2022-08-09T14:04:44.650Z</time>
      </trkpt>
      <trkpt lat="43.0733" lon="0.39373">
        <ele>532.063093</ele>
        <time>2022-08-09T14:05:07.049Z</time>
      </trkpt>
      <trkpt lat="43.07346" lon="0.39338">
        <ele>533.15912</ele>
        <time>2022-08-09T14:05:16.713Z</time>
      </trkpt>
      <trkpt lat="43.07369" lon="0.39278">
        <ele>534.967076</ele>
        <time>2022-08-09T14:05:29.966Z</time>
      </trkpt>
      <trkpt lat="43.07387" lon="0.39196">
        <ele>537.251176</ele>
        <time>2022-08-09T14:05:45.716Z</time>
      </trkpt>
      <trkpt lat="43.0739" lon="0.39122">
        <ele>538.580373</ele>
        <time>2022-08-09T14:05:58.763Z</time>
      </trkpt>
      <trkpt lat="43.07394" lon="0.39046">
        <ele>539.958621</ele>
        <time>2022-08-09T14:06:11.789Z</time>
      </trkpt>
      <trkpt lat="43.07409" lon="0.38989">
        <ele>541.048648</ele>
        <time>2022-08-09T14:06:23.049Z</time>
      </trkpt>
      <trkpt lat="43.0745" lon="0.38913">
        <ele>542.78924</ele>
        <time>2022-08-09T14:06:40.638Z</time>
      </trkpt>
      <trkpt lat="43.07499" lon="0.38842">
        <ele>544.617174</ele>
        <time>2022-08-09T14:06:59.528Z</time>
      </trkpt>
      <trkpt lat="43.07521" lon="0.388">
        <ele>545.577365</ele>
        <time>2022-08-09T14:07:09.100Z</time>
      </trkpt>
      <trkpt lat="43.0753" lon="0.38765">
        <ele>546.253851</ele>
        <time>2022-08-09T14:07:15.405Z</time>
      </trkpt>
      <trkpt lat="43.07529" lon="0.38724">
        <ele>546.566928</ele>
        <time>2022-08-09T14:07:22.043Z</time>
      </trkpt>
      <trkpt lat="43.07505" lon="0.38691">
        <ele>546.919313</ele>
        <time>2022-08-09T14:07:28.700Z</time>
      </trkpt>
      <trkpt lat="43.07427" lon="0.38606">
        <ele>547.959892</ele>
        <time>2022-08-09T14:07:46.175Z</time>
      </trkpt>
      <trkpt lat="43.07372" lon="0.38583">
        <ele>548.321653</ele>
        <time>2022-08-09T14:07:55.544Z</time>
      </trkpt>
      <trkpt lat="43.07345" lon="0.38563">
        <ele>548.469483</ele>
        <time>2022-08-09T14:08:01.000Z</time>
      </trkpt>
      <trkpt lat="43.0727" lon="0.38477">
        <ele>548.946762</ele>
        <time>2022-08-09T14:08:17.609Z</time>
      </trkpt>
      <trkpt lat="43.07256" lon="0.38447">
        <ele>548.930402</ele>
        <time>2022-08-09T14:08:21.928Z</time>
      </trkpt>
      <trkpt lat="43.07248" lon="0.38432">
        <ele>548.881127</ele>
        <time>2022-08-09T14:08:23.991Z</time>
      </trkpt>
      <trkpt lat="43.07185" lon="0.3837">
        <ele>548.613336</ele>
        <time>2022-08-09T14:08:35.119Z</time>
      </trkpt>
      <trkpt lat="43.07155" lon="0.38352">
        <ele>548.49679</ele>
        <time>2022-08-09T14:08:39.560Z</time>
      </trkpt>
      <trkpt lat="43.07093" lon="0.38332">
        <ele>547.955927</ele>
        <time>2022-08-09T14:08:47.145Z</time>
      </trkpt>
      <trkpt lat="43.06957" lon="0.38244">
        <ele>545.521621</ele>
        <time>2022-08-09T14:09:04.151Z</time>
      </trkpt>
      <trkpt lat="43.06896" lon="0.38215">
        <ele>544.007745</ele>
        <time>2022-08-09T14:09:11.219Z</time>
      </trkpt>
      <trkpt lat="43.06892" lon="0.38214">
        <ele>543.918486</ele>
        <time>2022-08-09T14:09:11.632Z</time>
      </trkpt>
      <trkpt lat="43.06839" lon="0.38203">
        <ele>542.630134</ele>
        <time>2022-08-09T14:09:17.261Z</time>
      </trkpt>
      <trkpt lat="43.06738" lon="0.38209">
        <ele>540.253664</ele>
        <time>2022-08-09T14:09:27.764Z</time>
      </trkpt>
      <trkpt lat="43.06684" lon="0.3819">
        <ele>538.991196</ele>
        <time>2022-08-09T14:09:33.604Z</time>
      </trkpt>
      <trkpt lat="43.06637" lon="0.38181">
        <ele>537.914127</ele>
        <time>2022-08-09T14:09:38.799Z</time>
      </trkpt>
      <trkpt lat="43.06549" lon="0.38183">
        <ele>536.459172</ele>
        <time>2022-08-09T14:09:48.578Z</time>
      </trkpt>
      <trkpt lat="43.06459" lon="0.38204">
        <ele>535.373831</ele>
        <time>2022-08-09T14:09:59.715Z</time>
      </trkpt>
      <trkpt lat="43.06421" lon="0.38206">
        <ele>534.926793</ele>
        <time>2022-08-09T14:10:04.368Z</time>
      </trkpt>
      <trkpt lat="43.06399" lon="0.38197">
        <ele>535.314058</ele>
        <time>2022-08-09T14:10:07.284Z</time>
      </trkpt>
      <trkpt lat="43.0633" lon="0.38138">
        <ele>536.709299</ele>
        <time>2022-08-09T14:10:20.188Z</time>
      </trkpt>
      <trkpt lat="43.06293" lon="0.3812">
        <ele>537.382661</ele>
        <time>2022-08-09T14:10:29.517Z</time>
      </trkpt>
      <trkpt lat="43.06259" lon="0.38116">
        <ele>537.979531</ele>
        <time>2022-08-09T14:10:40.278Z</time>
      </trkpt>
      <trkpt lat="43.06242" lon="0.38023">
        <ele>544.28559</ele>
        <time>2022-08-09T14:11:13.459Z</time>
      </trkpt>
      <trkpt lat="43.06241" lon="0.37961">
        <ele>548.461285</ele>
        <time>2022-08-09T14:11:40.359Z</time>
      </trkpt>
      <trkpt lat="43.06235" lon="0.3787">
        <ele>554.686344</ele>
        <time>2022-08-09T14:12:27.145Z</time>
      </trkpt>
      <trkpt lat="43.06209" lon="0.3765">
        <ele>574.298345</ele>
        <time>2022-08-09T14:14:24.144Z</time>
      </trkpt>
      <trkpt lat="43.06202" lon="0.37595">
        <ele>577.862873</ele>
        <time>2022-08-09T14:14:48.662Z</time>
      </trkpt>
      <trkpt lat="43.06201" lon="0.37587">
        <ele>578.258656</ele>
        <time>2022-08-09T14:14:51.982Z</time>
      </trkpt>
      <trkpt lat="43.06166" lon="0.37407">
        <ele>587.06524</ele>
        <time>2022-08-09T14:15:51.539Z</time>
      </trkpt>
      <trkpt lat="43.06133" lon="0.37276">
        <ele>590.128165</ele>
        <time>2022-08-09T14:16:23.122Z</time>
      </trkpt>
      <trkpt lat="43.06116" lon="0.3721">
        <ele>591.370003</ele>
        <time>2022-08-09T14:16:37.201Z</time>
      </trkpt>
      <trkpt lat="43.06104" lon="0.37182">
        <ele>591.956319</ele>
        <time>2022-08-09T14:16:43.042Z</time>
      </trkpt>
      <trkpt lat="43.06106" lon="0.3716">
        <ele>592.353868</ele>
        <time>2022-08-09T14:16:47.597Z</time>
      </trkpt>
      <trkpt lat="43.06153" lon="0.37169">
        <ele>593.381397</ele>
        <time>2022-08-09T14:16:57.069Z</time>
      </trkpt>
      <trkpt lat="43.0628" lon="0.37193">
        <ele>596.128867</ele>
        <time>2022-08-09T14:17:27.154Z</time>
      </trkpt>
      <trkpt lat="43.06275" lon="0.3717">
        <ele>596.682197</ele>
        <time>2022-08-09T14:17:31.417Z</time>
      </trkpt>
      <trkpt lat="43.06223" lon="0.36939">
        <ele>603.473108</ele>
        <time>2022-08-09T14:18:25.891Z</time>
      </trkpt>
      <trkpt lat="43.06194" lon="0.36881">
        <ele>605.722286</ele>
        <time>2022-08-09T14:18:43.516Z</time>
      </trkpt>
      <trkpt lat="43.06059" lon="0.36803">
        <ele>612.317353</ele>
        <time>2022-08-09T14:19:29.957Z</time>
      </trkpt>
      <trkpt lat="43.05973" lon="0.3676">
        <ele>617.077145</ele>
        <time>2022-08-09T14:20:01.593Z</time>
      </trkpt>
      <trkpt lat="43.05957" lon="0.36744">
        <ele>618.09241</ele>
        <time>2022-08-09T14:20:08.987Z</time>
      </trkpt>
      <trkpt lat="43.05945" lon="0.36713">
        <ele>619.45938</ele>
        <time>2022-08-09T14:20:19.740Z</time>
      </trkpt>
      <trkpt lat="43.05941" lon="0.36686">
        <ele>620.510531</ele>
        <time>2022-08-09T14:20:27.006Z</time>
      </trkpt>
      <trkpt lat="43.05946" lon="0.36636">
        <ele>622.913469</ele>
        <time>2022-08-09T14:20:41.666Z</time>
      </trkpt>
      <trkpt lat="43.05948" lon="0.3663">
        <ele>623.212329</ele>
        <time>2022-08-09T14:20:43.551Z</time>
      </trkpt>
      <trkpt lat="43.05951" lon="0.36614">
        <ele>624.000714</ele>
        <time>2022-08-09T14:20:48.746Z</time>
      </trkpt>
      <trkpt lat="43.05953" lon="0.366">
        <ele>624.703007</ele>
        <time>2022-08-09T14:20:52.722Z</time>
      </trkpt>
      <trkpt lat="43.05947" lon="0.36566">
        <ele>626.358155</ele>
        <time>2022-08-09T14:21:03.910Z</time>
      </trkpt>
      <trkpt lat="43.05904" lon="0.36529">
        <ele>629.652948</ele>
        <time>2022-08-09T14:21:25.785Z</time>
      </trkpt>
      <trkpt lat="43.05819" lon="0.36513">
        <ele>634.754599</ele>
        <time>2022-08-09T14:21:59.949Z</time>
      </trkpt>
      <trkpt lat="43.05787" lon="0.36515">
        <ele>636.542946</ele>
        <time>2022-08-09T14:22:11.109Z</time>
      </trkpt>
      <trkpt lat="43.05765" lon="0.36492">
        <ele>638.050121</ele>
        <time>2022-08-09T14:22:20.445Z</time>
      </trkpt>
      <trkpt lat="43.05699" lon="0.36504">
        <ele>641.732233</ele>
        <time>2022-08-09T14:22:43.993Z</time>
      </trkpt>
      <trkpt lat="43.05666" lon="0.365">
        <ele>643.687358</ele>
        <time>2022-08-09T14:22:56.420Z</time>
      </trkpt>
      <trkpt lat="43.05584" lon="0.36474">
        <ele>648.788322</ele>
        <time>2022-08-09T14:23:30.897Z</time>
      </trkpt>
      <trkpt lat="43.05436" lon="0.36452">
        <ele>656.39978</ele>
        <time>2022-08-09T14:24:28.231Z</time>
      </trkpt>
      <trkpt lat="43.05413" lon="0.36455">
        <ele>657.401619</ele>
        <time>2022-08-09T14:24:35.403Z</time>
      </trkpt>
      <trkpt lat="43.05326" lon="0.365">
        <ele>661.128578</ele>
        <time>2022-08-09T14:24:59.670Z</time>
      </trkpt>
      <trkpt lat="43.05254" lon="0.36505">
        <ele>663.1694</ele>
        <time>2022-08-09T14:25:16.147Z</time>
      </trkpt>
      <trkpt lat="43.05192" lon="0.36496">
        <ele>664.903937</ele>
        <time>2022-08-09T14:25:31.499Z</time>
      </trkpt>
      <trkpt lat="43.05119" lon="0.36434">
        <ele>668.850313</ele>
        <time>2022-08-09T14:25:59.084Z</time>
      </trkpt>
      <trkpt lat="43.0508" lon="0.36408">
        <ele>671.214331</ele>
        <time>2022-08-09T14:26:15.943Z</time>
      </trkpt>
      <trkpt lat="43.04958" lon="0.36252">
        <ele>679.204419</ele>
        <time>2022-08-09T14:27:22.324Z</time>
      </trkpt>
      <trkpt lat="43.04958" lon="0.36214">
        <ele>680.38096</ele>
        <time>2022-08-09T14:27:31.800Z</time>
      </trkpt>
      <trkpt lat="43.0495" lon="0.36193">
        <ele>681.115706</ele>
        <time>2022-08-09T14:27:37.233Z</time>
      </trkpt>
      <trkpt lat="43.04947" lon="0.36176">
        <ele>681.638512</ele>
        <time>2022-08-09T14:27:40.679Z</time>
      </trkpt>
      <trkpt lat="43.0498" lon="0.36002">
        <ele>681.02637</ele>
        <time>2022-08-09T14:27:59.876Z</time>
      </trkpt>
      <trkpt lat="43.05011" lon="0.35861">
        <ele>677.420043</ele>
        <time>2022-08-09T14:28:10.210Z</time>
      </trkpt>
      <trkpt lat="43.0502" lon="0.35798">
        <ele>673.958278</ele>
        <time>2022-08-09T14:28:14.400Z</time>
      </trkpt>
      <trkpt lat="43.05011" lon="0.35689">
        <ele>668.013388</ele>
        <time>2022-08-09T14:28:21.405Z</time>
      </trkpt>
      <trkpt lat="43.04972" lon="0.35499">
        <ele>656.495462</ele>
        <time>2022-08-09T14:28:34.075Z</time>
      </trkpt>
      <trkpt lat="43.04955" lon="0.35462">
        <ele>653.910352</ele>
        <time>2022-08-09T14:28:36.886Z</time>
      </trkpt>
      <trkpt lat="43.04919" lon="0.35419">
        <ele>650.710904</ele>
        <time>2022-08-09T14:28:41.165Z</time>
      </trkpt>
      <trkpt lat="43.04878" lon="0.35333">
        <ele>647.43922</ele>
        <time>2022-08-09T14:28:48.299Z</time>
      </trkpt>
      <trkpt lat="43.04862" lon="0.35237">
        <ele>644.325993</ele>
        <time>2022-08-09T14:28:55.502Z</time>
      </trkpt>
      <trkpt lat="43.04845" lon="0.35191">
        <ele>643.615308</ele>
        <time>2022-08-09T14:28:59.594Z</time>
      </trkpt>
      <trkpt lat="43.04836" lon="0.3518">
        <ele>643.588853</ele>
        <time>2022-08-09T14:29:00.949Z</time>
      </trkpt>
      <trkpt lat="43.04823" lon="0.35177">
        <ele>643.558532</ele>
        <time>2022-08-09T14:29:02.544Z</time>
      </trkpt>
      <trkpt lat="43.04797" lon="0.3519">
        <ele>643.496223</ele>
        <time>2022-08-09T14:29:05.818Z</time>
      </trkpt>
      <trkpt lat="43.04783" lon="0.35193">
        <ele>643.46482</ele>
        <time>2022-08-09T14:29:07.570Z</time>
      </trkpt>
      <trkpt lat="43.04772" lon="0.35188">
        <ele>643.438558</ele>
        <time>2022-08-09T14:29:09.291Z</time>
      </trkpt>
      <trkpt lat="43.04764" lon="0.35175">
        <ele>643.410848</ele>
        <time>2022-08-09T14:29:11.203Z</time>
      </trkpt>
      <trkpt lat="43.04741" lon="0.35093">
        <ele>643.267144</ele>
        <time>2022-08-09T14:29:23.858Z</time>
      </trkpt>
      <trkpt lat="43.04728" lon="0.35019">
        <ele>645.347736</ele>
        <time>2022-08-09T14:29:37.528Z</time>
      </trkpt>
      <trkpt lat="43.04701" lon="0.34962">
        <ele>647.275231</ele>
        <time>2022-08-09T14:29:52.735Z</time>
      </trkpt>
      <trkpt lat="43.04697" lon="0.34952">
        <ele>647.60677</ele>
        <time>2022-08-09T14:29:55.763Z</time>
      </trkpt>
      <trkpt lat="43.04688" lon="0.34876">
        <ele>649.799799</ele>
        <time>2022-08-09T14:30:15.328Z</time>
      </trkpt>
      <trkpt lat="43.04695" lon="0.34811">
        <ele>652.221454</ele>
        <time>2022-08-09T14:30:33.826Z</time>
      </trkpt>
      <trkpt lat="43.04783" lon="0.34506">
        <ele>664.701015</ele>
        <time>2022-08-09T14:32:01.314Z</time>
      </trkpt>
      <trkpt lat="43.04786" lon="0.34482">
        <ele>665.530357</ele>
        <time>2022-08-09T14:32:07.335Z</time>
      </trkpt>
      <trkpt lat="43.04782" lon="0.34462">
        <ele>666.276392</ele>
        <time>2022-08-09T14:32:11.707Z</time>
      </trkpt>
      <trkpt lat="43.04771" lon="0.34443">
        <ele>667.132006</ele>
        <time>2022-08-09T14:32:18.128Z</time>
      </trkpt>
      <trkpt lat="43.04755" lon="0.3443">
        <ele>667.993893</ele>
        <time>2022-08-09T14:32:23.410Z</time>
      </trkpt>
      <trkpt lat="43.04741" lon="0.34427">
        <ele>668.681663</ele>
        <time>2022-08-09T14:32:28.574Z</time>
      </trkpt>
      <trkpt lat="43.04686" lon="0.34431">
        <ele>670.031208</ele>
        <time>2022-08-09T14:32:43.873Z</time>
      </trkpt>
      <trkpt lat="43.04645" lon="0.34427">
        <ele>671.025763</ele>
        <time>2022-08-09T14:32:54.358Z</time>
      </trkpt>
      <trkpt lat="43.04626" lon="0.34418">
        <ele>671.494131</ele>
        <time>2022-08-09T14:32:59.089Z</time>
      </trkpt>
      <trkpt lat="43.04618" lon="0.34403">
        <ele>671.825077</ele>
        <time>2022-08-09T14:33:01.965Z</time>
      </trkpt>
      <trkpt lat="43.04619" lon="0.34367">
        <ele>672.461686</ele>
        <time>2022-08-09T14:33:07.845Z</time>
      </trkpt>
      <trkpt lat="43.0465" lon="0.34303">
        <ele>673.034163</ele>
        <time>2022-08-09T14:33:17.732Z</time>
      </trkpt>
      <trkpt lat="43.04651" lon="0.34263">
        <ele>673.018353</ele>
        <time>2022-08-09T14:33:23.157Z</time>
      </trkpt>
      <trkpt lat="43.0463" lon="0.34203">
        <ele>672.992021</ele>
        <time>2022-08-09T14:33:30.770Z</time>
      </trkpt>
      <trkpt lat="43.04611" lon="0.34174">
        <ele>672.976936</ele>
        <time>2022-08-09T14:33:34.516Z</time>
      </trkpt>
      <trkpt lat="43.04578" lon="0.34137">
        <ele>672.939511</ele>
        <time>2022-08-09T14:33:39.735Z</time>
      </trkpt>
      <trkpt lat="43.04536" lon="0.34102">
        <ele>671.282129</ele>
        <time>2022-08-09T14:33:45.190Z</time>
      </trkpt>
      <trkpt lat="43.04472" lon="0.34061">
        <ele>668.887919</ele>
        <time>2022-08-09T14:33:52.505Z</time>
      </trkpt>
      <trkpt lat="43.04338" lon="0.34016">
        <ele>662.466259</ele>
        <time>2022-08-09T14:34:05.353Z</time>
      </trkpt>
      <trkpt lat="43.04306" lon="0.33994">
        <ele>660.482662</ele>
        <time>2022-08-09T14:34:08.577Z</time>
      </trkpt>
      <trkpt lat="43.04267" lon="0.33943">
        <ele>657.473464</ele>
        <time>2022-08-09T14:34:13.516Z</time>
      </trkpt>
      <trkpt lat="43.04157" lon="0.33707">
        <ele>649.892733</ele>
        <time>2022-08-09T14:34:33.616Z</time>
      </trkpt>
      <trkpt lat="43.04156" lon="0.33701">
        <ele>649.871343</ele>
        <time>2022-08-09T14:34:34.076Z</time>
      </trkpt>
      <trkpt lat="43.04152" lon="0.33603">
        <ele>649.496195</ele>
        <time>2022-08-09T14:34:43.615Z</time>
      </trkpt>
      <trkpt lat="43.04151" lon="0.33547">
        <ele>649.285585</ele>
        <time>2022-08-09T14:34:49.603Z</time>
      </trkpt>
      <trkpt lat="43.04158" lon="0.33495">
        <ele>649.082412</ele>
        <time>2022-08-09T14:34:56.399Z</time>
      </trkpt>
      <trkpt lat="43.04164" lon="0.33441">
        <ele>649.4918</ele>
        <time>2022-08-09T14:35:04.071Z</time>
      </trkpt>
      <trkpt lat="43.04145" lon="0.33395">
        <ele>650.106139</ele>
        <time>2022-08-09T14:35:12.280Z</time>
      </trkpt>
      <trkpt lat="43.04142" lon="0.33365">
        <ele>650.461139</ele>
        <time>2022-08-09T14:35:17.401Z</time>
      </trkpt>
      <trkpt lat="43.04141" lon="0.33265">
        <ele>651.634052</ele>
        <time>2022-08-09T14:35:35.087Z</time>
      </trkpt>
      <trkpt lat="43.04149" lon="0.33189">
        <ele>652.545953</ele>
        <time>2022-08-09T14:35:45.293Z</time>
      </trkpt>
      <trkpt lat="43.04141" lon="0.33165">
        <ele>652.862891</ele>
        <time>2022-08-09T14:35:48.925Z</time>
      </trkpt>
      <trkpt lat="43.04104" lon="0.33133">
        <ele>653.581488</ele>
        <time>2022-08-09T14:35:56.672Z</time>
      </trkpt>
      <trkpt lat="43.04073" lon="0.32941">
        <ele>656.599322</ele>
        <time>2022-08-09T14:36:31.975Z</time>
      </trkpt>
      <trkpt lat="43.04067" lon="0.32835">
        <ele>658.632545</ele>
        <time>2022-08-09T14:36:54.708Z</time>
      </trkpt>
      <trkpt lat="43.04072" lon="0.32726">
        <ele>658.727049</ele>
        <time>2022-08-09T14:37:11.991Z</time>
      </trkpt>
      <trkpt lat="43.04087" lon="0.32633">
        <ele>657.354601</ele>
        <time>2022-08-09T14:37:20.853Z</time>
      </trkpt>
      <trkpt lat="43.0409" lon="0.32564">
        <ele>656.361382</ele>
        <time>2022-08-09T14:37:25.791Z</time>
      </trkpt>
      <trkpt lat="43.04074" lon="0.32409">
        <ele>648.039771</ele>
        <time>2022-08-09T14:37:35.832Z</time>
      </trkpt>
      <trkpt lat="43.04057" lon="0.32374">
        <ele>645.508183</ele>
        <time>2022-08-09T14:37:38.560Z</time>
      </trkpt>
      <trkpt lat="43.04037" lon="0.32349">
        <ele>643.256077</ele>
        <time>2022-08-09T14:37:40.993Z</time>
      </trkpt>
      <trkpt lat="43.04023" lon="0.32343">
        <ele>642.117247</ele>
        <time>2022-08-09T14:37:42.247Z</time>
      </trkpt>
      <trkpt lat="43.03992" lon="0.32345">
        <ele>639.056064</ele>
        <time>2022-08-09T14:37:44.975Z</time>
      </trkpt>
      <trkpt lat="43.03965" lon="0.32362">
        <ele>636.020852</ele>
        <time>2022-08-09T14:37:47.466Z</time>
      </trkpt>
      <trkpt lat="43.0392" lon="0.32412">
        <ele>630.019933</ele>
        <time>2022-08-09T14:37:52.373Z</time>
      </trkpt>
      <trkpt lat="43.03903" lon="0.32415">
        <ele>628.246008</ele>
        <time>2022-08-09T14:37:53.839Z</time>
      </trkpt>
      <trkpt lat="43.03922" lon="0.32376">
        <ele>624.747249</ele>
        <time>2022-08-09T14:37:56.763Z</time>
      </trkpt>
      <trkpt lat="43.03937" lon="0.32345">
        <ele>622.113028</ele>
        <time>2022-08-09T14:37:59.130Z</time>
      </trkpt>
      <trkpt lat="43.0396" lon="0.32301">
        <ele>619.027827</ele>
        <time>2022-08-09T14:38:02.555Z</time>
      </trkpt>
      <trkpt lat="43.04005" lon="0.32255">
        <ele>614.677849</ele>
        <time>2022-08-09T14:38:07.347Z</time>
      </trkpt>
      <trkpt lat="43.04019" lon="0.32216">
        <ele>612.146822</ele>
        <time>2022-08-09T14:38:10.192Z</time>
      </trkpt>
      <trkpt lat="43.04044" lon="0.32168">
        <ele>608.799813</ele>
        <time>2022-08-09T14:38:14.243Z</time>
      </trkpt>
      <trkpt lat="43.04088" lon="0.32102">
        <ele>608.548133</ele>
        <time>2022-08-09T14:38:22.013Z</time>
      </trkpt>
      <trkpt lat="43.04088" lon="0.32099">
        <ele>608.543117</ele>
        <time>2022-08-09T14:38:22.232Z</time>
      </trkpt>
      <trkpt lat="43.04147" lon="0.32052">
        <ele>608.391147</ele>
        <time>2022-08-09T14:38:36.231Z</time>
      </trkpt>
      <trkpt lat="43.04202" lon="0.32049">
        <ele>608.180325</ele>
        <time>2022-08-09T14:38:46.646Z</time>
      </trkpt>
      <trkpt lat="43.04237" lon="0.32064">
        <ele>607.747029</ele>
        <time>2022-08-09T14:38:54.741Z</time>
      </trkpt>
      <trkpt lat="43.04259" lon="0.32088">
        <ele>607.417886</ele>
        <time>2022-08-09T14:39:00.450Z</time>
      </trkpt>
      <trkpt lat="43.04292" lon="0.32162">
        <ele>606.661042</ele>
        <time>2022-08-09T14:39:08.229Z</time>
      </trkpt>
      <trkpt lat="43.04306" lon="0.32204">
        <ele>606.267988</ele>
        <time>2022-08-09T14:39:11.762Z</time>
      </trkpt>
      <trkpt lat="43.04312" lon="0.32246">
        <ele>603.939709</ele>
        <time>2022-08-09T14:39:14.690Z</time>
      </trkpt>
      <trkpt lat="43.04324" lon="0.32255">
        <ele>602.578913</ele>
        <time>2022-08-09T14:39:15.908Z</time>
      </trkpt>
      <trkpt lat="43.04335" lon="0.32252">
        <ele>601.500187</ele>
        <time>2022-08-09T14:39:16.857Z</time>
      </trkpt>
      <trkpt lat="43.04351" lon="0.32232">
        <ele>599.35477</ele>
        <time>2022-08-09T14:39:18.726Z</time>
      </trkpt>
      <trkpt lat="43.04364" lon="0.32205">
        <ele>597.075789</ele>
        <time>2022-08-09T14:39:20.712Z</time>
      </trkpt>
      <trkpt lat="43.04377" lon="0.32151">
        <ele>592.993357</ele>
        <time>2022-08-09T14:39:24.254Z</time>
      </trkpt>
      <trkpt lat="43.04374" lon="0.32029">
        <ele>583.309971</ele>
        <time>2022-08-09T14:39:31.813Z</time>
      </trkpt>
      <trkpt lat="43.04363" lon="0.31975">
        <ele>578.377185</ele>
        <time>2022-08-09T14:39:35.247Z</time>
      </trkpt>
      <trkpt lat="43.04365" lon="0.31958">
        <ele>576.875419</ele>
        <time>2022-08-09T14:39:36.295Z</time>
      </trkpt>
      <trkpt lat="43.04382" lon="0.31933">
        <ele>573.825187</ele>
        <time>2022-08-09T14:39:38.423Z</time>
      </trkpt>
      <trkpt lat="43.04437" lon="0.31898">
        <ele>566.674739</ele>
        <time>2022-08-09T14:39:43.599Z</time>
      </trkpt>
      <trkpt lat="43.04444" lon="0.31879">
        <ele>565.137518</ele>
        <time>2022-08-09T14:39:44.961Z</time>
      </trkpt>
      <trkpt lat="43.04425" lon="0.31849">
        <ele>562.360679</ele>
        <time>2022-08-09T14:39:47.504Z</time>
      </trkpt>
      <trkpt lat="43.04426" lon="0.31794">
        <ele>558.532533</ele>
        <time>2022-08-09T14:39:51.003Z</time>
      </trkpt>
      <trkpt lat="43.04423" lon="0.31781">
        <ele>557.53867</ele>
        <time>2022-08-09T14:39:51.926Z</time>
      </trkpt>
      <trkpt lat="43.04415" lon="0.31772">
        <ele>556.538398</ele>
        <time>2022-08-09T14:39:52.874Z</time>
      </trkpt>
      <trkpt lat="43.04409" lon="0.31772">
        <ele>555.928149</ele>
        <time>2022-08-09T14:39:53.421Z</time>
      </trkpt>
      <trkpt lat="43.04342" lon="0.31819">
        <ele>548.813471</ele>
        <time>2022-08-09T14:39:59.838Z</time>
      </trkpt>
      <trkpt lat="43.04302" lon="0.31821">
        <ele>544.984516</ele>
        <time>2022-08-09T14:40:03.399Z</time>
      </trkpt>
      <trkpt lat="43.04248" lon="0.31807">
        <ele>539.765069</ele>
        <time>2022-08-09T14:40:08.167Z</time>
      </trkpt>
      <trkpt lat="43.04204" lon="0.31781">
        <ele>535.219826</ele>
        <time>2022-08-09T14:40:12.296Z</time>
      </trkpt>
      <trkpt lat="43.04168" lon="0.3175">
        <ele>531.213878</ele>
        <time>2022-08-09T14:40:15.983Z</time>
      </trkpt>
      <trkpt lat="43.04113" lon="0.31679">
        <ele>524.072209</ele>
        <time>2022-08-09T14:40:22.507Z</time>
      </trkpt>
      <trkpt lat="43.04056" lon="0.31593">
        <ele>516.03607</ele>
        <time>2022-08-09T14:40:29.867Z</time>
      </trkpt>
      <trkpt lat="43.03988" lon="0.31506">
        <ele>508.514563</ele>
        <time>2022-08-09T14:40:37.998Z</time>
      </trkpt>
      <trkpt lat="43.0392" lon="0.31473">
        <ele>502.690958</ele>
        <time>2022-08-09T14:40:44.414Z</time>
      </trkpt>
      <trkpt lat="43.03873" lon="0.31417">
        <ele>498.281298</ele>
        <time>2022-08-09T14:40:49.993Z</time>
      </trkpt>
      <trkpt lat="43.0374" lon="0.31363">
        <ele>489.032118</ele>
        <time>2022-08-09T14:41:02.565Z</time>
      </trkpt>
      <trkpt lat="43.03637" lon="0.31331">
        <ele>482.460953</ele>
        <time>2022-08-09T14:41:12.241Z</time>
      </trkpt>
      <trkpt lat="43.03586" lon="0.31318">
        <ele>479.300815</ele>
        <time>2022-08-09T14:41:16.964Z</time>
      </trkpt>
      <trkpt lat="43.0355" lon="0.31291">
        <ele>476.772144</ele>
        <time>2022-08-09T14:41:20.733Z</time>
      </trkpt>
      <trkpt lat="43.03537" lon="0.31287">
        <ele>475.903439</ele>
        <time>2022-08-09T14:41:22.091Z</time>
      </trkpt>
      <trkpt lat="43.03519" lon="0.31295">
        <ele>474.749346</ele>
        <time>2022-08-09T14:41:23.746Z</time>
      </trkpt>
      <trkpt lat="43.03465" lon="0.31342">
        <ele>470.83522</ele>
        <time>2022-08-09T14:41:29.570Z</time>
      </trkpt>
      <trkpt lat="43.03432" lon="0.31347">
        <ele>468.777574</ele>
        <time>2022-08-09T14:41:32.639Z</time>
      </trkpt>
      <trkpt lat="43.03418" lon="0.31336">
        <ele>467.791142</ele>
        <time>2022-08-09T14:41:34.050Z</time>
      </trkpt>
      <trkpt lat="43.03334" lon="0.31272">
        <ele>462.37571</ele>
        <time>2022-08-09T14:41:42.870Z</time>
      </trkpt>
      <trkpt lat="43.0332" lon="0.31266">
        <ele>461.562862</ele>
        <time>2022-08-09T14:41:44.193Z</time>
      </trkpt>
      <trkpt lat="43.03285" lon="0.31265">
        <ele>459.596695</ele>
        <time>2022-08-09T14:41:47.434Z</time>
      </trkpt>
      <trkpt lat="43.03271" lon="0.31249">
        <ele>458.598668</ele>
        <time>2022-08-09T14:41:49.098Z</time>
      </trkpt>
      <trkpt lat="43.03266" lon="0.31225">
        <ele>457.598498</ele>
        <time>2022-08-09T14:41:50.959Z</time>
      </trkpt>
      <trkpt lat="43.03258" lon="0.31222">
        <ele>457.129717</ele>
        <time>2022-08-09T14:41:51.719Z</time>
      </trkpt>
      <trkpt lat="43.0322" lon="0.31124">
        <ele>455.736879</ele>
        <time>2022-08-09T14:42:00.024Z</time>
      </trkpt>
      <trkpt lat="43.03193" lon="0.30976">
        <ele>454.322906</ele>
        <time>2022-08-09T14:42:14.613Z</time>
      </trkpt>
      <trkpt lat="43.03192" lon="0.30966">
        <ele>454.512523</ele>
        <time>2022-08-09T14:42:16.175Z</time>
      </trkpt>
      <trkpt lat="43.03189" lon="0.30928">
        <ele>455.188962</ele>
        <time>2022-08-09T14:42:21.605Z</time>
      </trkpt>
      <trkpt lat="43.0318" lon="0.30848">
        <ele>456.619822</ele>
        <time>2022-08-09T14:42:36.507Z</time>
      </trkpt>
      <trkpt lat="43.03182" lon="0.30833">
        <ele>456.894693</ele>
        <time>2022-08-09T14:42:39.662Z</time>
      </trkpt>
      <trkpt lat="43.03206" lon="0.30786">
        <ele>457.914957</ele>
        <time>2022-08-09T14:42:52.229Z</time>
      </trkpt>
      <trkpt lat="43.03217" lon="0.30712">
        <ele>459.742032</ele>
        <time>2022-08-09T14:43:09.252Z</time>
      </trkpt>
      <trkpt lat="43.03226" lon="0.30627">
        <ele>462.193559</ele>
        <time>2022-08-09T14:43:28.025Z</time>
      </trkpt>
      <trkpt lat="43.03227" lon="0.30474">
        <ele>466.497907</ele>
        <time>2022-08-09T14:44:02.815Z</time>
      </trkpt>
      <trkpt lat="43.03216" lon="0.30425">
        <ele>467.868348</ele>
        <time>2022-08-09T14:44:13.472Z</time>
      </trkpt>
      <trkpt lat="43.03192" lon="0.30393">
        <ele>469.12476</ele>
        <time>2022-08-09T14:44:22.432Z</time>
      </trkpt>
      <trkpt lat="43.03149" lon="0.30373">
        <ele>470.796554</ele>
        <time>2022-08-09T14:44:35.281Z</time>
      </trkpt>
      <trkpt lat="43.03105" lon="0.30368">
        <ele>472.584548</ele>
        <time>2022-08-09T14:44:49.010Z</time>
      </trkpt>
      <trkpt lat="43.03027" lon="0.30343">
        <ele>476.95697</ele>
        <time>2022-08-09T14:45:15.548Z</time>
      </trkpt>
      <trkpt lat="43.02955" lon="0.30313">
        <ele>481.095156</ele>
        <time>2022-08-09T14:45:43.997Z</time>
      </trkpt>
      <trkpt lat="43.02897" lon="0.30272">
        <ele>486.619233</ele>
        <time>2022-08-09T14:46:14.972Z</time>
      </trkpt>
      <trkpt lat="43.02869" lon="0.30267">
        <ele>489.216852</ele>
        <time>2022-08-09T14:46:29.449Z</time>
      </trkpt>
      <trkpt lat="43.02852" lon="0.30251">
        <ele>491.136474</ele>
        <time>2022-08-09T14:46:39.771Z</time>
      </trkpt>
      <trkpt lat="43.0285" lon="0.3023">
        <ele>492.598947</ele>
        <time>2022-08-09T14:46:48.422Z</time>
      </trkpt>
      <trkpt lat="43.02887" lon="0.29957">
        <ele>514.42668</ele>
        <time>2022-08-09T14:48:47.230Z</time>
      </trkpt>
      <trkpt lat="43.02921" lon="0.29853">
        <ele>523.465638</ele>
        <time>2022-08-09T14:49:42.701Z</time>
      </trkpt>
      <trkpt lat="43.02922" lon="0.29832">
        <ele>525.003279</ele>
        <time>2022-08-09T14:49:54.423Z</time>
      </trkpt>
      <trkpt lat="43.02902" lon="0.29668">
        <ele>537.519396</ele>
        <time>2022-08-09T14:51:00.155Z</time>
      </trkpt>
      <trkpt lat="43.02909" lon="0.2962">
        <ele>538.363618</ele>
        <time>2022-08-09T14:51:14.095Z</time>
      </trkpt>
      <trkpt lat="43.02922" lon="0.29564">
        <ele>539.235876</ele>
        <time>2022-08-09T14:51:24.496Z</time>
      </trkpt>
      <trkpt lat="43.02931" lon="0.2954">
        <ele>539.63258</ele>
        <time>2022-08-09T14:51:28.399Z</time>
      </trkpt>
      <trkpt lat="43.02995" lon="0.29405">
        <ele>540.906538</ele>
        <time>2022-08-09T14:51:42.899Z</time>
      </trkpt>
      <trkpt lat="43.02949" lon="0.29246">
        <ele>539.450573</ele>
        <time>2022-08-09T14:51:58.118Z</time>
      </trkpt>
      <trkpt lat="43.02912" lon="0.29162">
        <ele>536.801698</ele>
        <time>2022-08-09T14:52:06.501Z</time>
      </trkpt>
      <trkpt lat="43.02861" lon="0.29086">
        <ele>533.263856</ele>
        <time>2022-08-09T14:52:13.541Z</time>
      </trkpt>
      <trkpt lat="43.02837" lon="0.29063">
        <ele>531.874116</ele>
        <time>2022-08-09T14:52:16.250Z</time>
      </trkpt>
      <trkpt lat="43.028" lon="0.29015">
        <ele>528.021934</ele>
        <time>2022-08-09T14:52:20.718Z</time>
      </trkpt>
      <trkpt lat="43.02779" lon="0.28998">
        <ele>525.519978</ele>
        <time>2022-08-09T14:52:22.868Z</time>
      </trkpt>
      <trkpt lat="43.02741" lon="0.29004">
        <ele>521.570622</ele>
        <time>2022-08-09T14:52:26.192Z</time>
      </trkpt>
      <trkpt lat="43.02712" lon="0.28974">
        <ele>517.897983</ele>
        <time>2022-08-09T14:52:29.231Z</time>
      </trkpt>
      <trkpt lat="43.02704" lon="0.28951">
        <ele>515.925869</ele>
        <time>2022-08-09T14:52:30.827Z</time>
      </trkpt>
      <trkpt lat="43.02709" lon="0.2893">
        <ele>514.282684</ele>
        <time>2022-08-09T14:52:32.192Z</time>
      </trkpt>
      <trkpt lat="43.02712" lon="0.28927">
        <ele>513.859602</ele>
        <time>2022-08-09T14:52:32.537Z</time>
      </trkpt>
      <trkpt lat="43.02765" lon="0.28923">
        <ele>508.307661</ele>
        <time>2022-08-09T14:52:36.974Z</time>
      </trkpt>
      <trkpt lat="43.02812" lon="0.28898">
        <ele>502.864273</ele>
        <time>2022-08-09T14:52:41.349Z</time>
      </trkpt>
      <trkpt lat="43.02846" lon="0.28869">
        <ele>498.608855</ele>
        <time>2022-08-09T14:52:44.745Z</time>
      </trkpt>
      <trkpt lat="43.02926" lon="0.2884">
        <ele>490.547322</ele>
        <time>2022-08-09T14:52:51.893Z</time>
      </trkpt>
      <trkpt lat="43.0298" lon="0.28795">
        <ele>485.523874</ele>
        <time>2022-08-09T14:52:57.405Z</time>
      </trkpt>
      <trkpt lat="43.03037" lon="0.28766">
        <ele>480.614283</ele>
        <time>2022-08-09T14:53:02.948Z</time>
      </trkpt>
      <trkpt lat="43.03125" lon="0.2874">
        <ele>474.783026</ele>
        <time>2022-08-09T14:53:11.023Z</time>
      </trkpt>
      <trkpt lat="43.03193" lon="0.28761">
        <ele>470.578892</ele>
        <time>2022-08-09T14:53:17.417Z</time>
      </trkpt>
      <trkpt lat="43.03246" lon="0.28758">
        <ele>467.723977</ele>
        <time>2022-08-09T14:53:22.386Z</time>
      </trkpt>
      <trkpt lat="43.03337" lon="0.28709">
        <ele>465.281401</ele>
        <time>2022-08-09T14:53:32.359Z</time>
      </trkpt>
      <trkpt lat="43.03461" lon="0.28619">
        <ele>462.814126</ele>
        <time>2022-08-09T14:53:49.900Z</time>
      </trkpt>
      <trkpt lat="43.03473" lon="0.2858">
        <ele>462.516373</ele>
        <time>2022-08-09T14:53:54.449Z</time>
      </trkpt>
      <trkpt lat="43.03478" lon="0.2851">
        <ele>462.026885</ele>
        <time>2022-08-09T14:54:01.355Z</time>
      </trkpt>
      <trkpt lat="43.03489" lon="0.28469">
        <ele>461.718285</ele>
        <time>2022-08-09T14:54:05.388Z</time>
      </trkpt>
      <trkpt lat="43.03486" lon="0.28442">
        <ele>460.433359</ele>
        <time>2022-08-09T14:54:07.438Z</time>
      </trkpt>
      <trkpt lat="43.0348" lon="0.28431">
        <ele>459.772413</ele>
        <time>2022-08-09T14:54:08.479Z</time>
      </trkpt>
      <trkpt lat="43.03473" lon="0.28421">
        <ele>459.07881</ele>
        <time>2022-08-09T14:54:09.553Z</time>
      </trkpt>
      <trkpt lat="43.03441" lon="0.28405">
        <ele>456.870852</ele>
        <time>2022-08-09T14:54:12.710Z</time>
      </trkpt>
      <trkpt lat="43.03425" lon="0.28374">
        <ele>455.093681</ele>
        <time>2022-08-09T14:54:15.155Z</time>
      </trkpt>
      <trkpt lat="43.03402" lon="0.28324">
        <ele>452.292513</ele>
        <time>2022-08-09T14:54:18.921Z</time>
      </trkpt>
      <trkpt lat="43.03379" lon="0.28242">
        <ele>447.849054</ele>
        <time>2022-08-09T14:54:24.470Z</time>
      </trkpt>
      <trkpt lat="43.03375" lon="0.28232">
        <ele>447.243553</ele>
        <time>2022-08-09T14:54:25.176Z</time>
      </trkpt>
      <trkpt lat="43.03373" lon="0.28227">
        <ele>446.940802</ele>
        <time>2022-08-09T14:54:25.529Z</time>
      </trkpt>
      <trkpt lat="43.03363" lon="0.28188">
        <ele>444.651284</ele>
        <time>2022-08-09T14:54:28.216Z</time>
      </trkpt>
      <trkpt lat="43.0337" lon="0.28163">
        <ele>443.236344</ele>
        <time>2022-08-09T14:54:29.875Z</time>
      </trkpt>
      <trkpt lat="43.03381" lon="0.28154">
        <ele>442.270763</ele>
        <time>2022-08-09T14:54:31.005Z</time>
      </trkpt>
      <trkpt lat="43.03403" lon="0.2816">
        <ele>440.608124</ele>
        <time>2022-08-09T14:54:32.960Z</time>
      </trkpt>
      <trkpt lat="43.03436" lon="0.28212">
        <ele>436.801857</ele>
        <time>2022-08-09T14:54:37.572Z</time>
      </trkpt>
      <trkpt lat="43.03475" lon="0.28251">
        <ele>436.84383</ele>
        <time>2022-08-09T14:54:42.916Z</time>
      </trkpt>
      <trkpt lat="43.03506" lon="0.28264">
        <ele>436.984015</ele>
        <time>2022-08-09T14:54:48.353Z</time>
      </trkpt>
      <trkpt lat="43.03532" lon="0.28285">
        <ele>437.114219</ele>
        <time>2022-08-09T14:54:55.163Z</time>
      </trkpt>
      <trkpt lat="43.03589" lon="0.28396">
        <ele>439.134442</ele>
        <time>2022-08-09T14:55:19.938Z</time>
      </trkpt>
      <trkpt lat="43.036" lon="0.28463">
        <ele>442.253682</ele>
        <time>2022-08-09T14:55:38.008Z</time>
      </trkpt>
      <trkpt lat="43.03614" lon="0.2849">
        <ele>443.757558</ele>
        <time>2022-08-09T14:55:50.097Z</time>
      </trkpt>
      <trkpt lat="43.03626" lon="0.28498">
        <ele>444.584989</ele>
        <time>2022-08-09T14:55:55.675Z</time>
      </trkpt>
      <trkpt lat="43.03637" lon="0.28494">
        <ele>445.248472</ele>
        <time>2022-08-09T14:56:01.989Z</time>
      </trkpt>
      <trkpt lat="43.03662" lon="0.28455">
        <ele>447.608823</ele>
        <time>2022-08-09T14:56:19.173Z</time>
      </trkpt>
      <trkpt lat="43.03687" lon="0.28448">
        <ele>449.347369</ele>
        <time>2022-08-09T14:56:29.351Z</time>
      </trkpt>
      <trkpt lat="43.03723" lon="0.28452">
        <ele>452.184611</ele>
        <time>2022-08-09T14:56:45.795Z</time>
      </trkpt>
      <trkpt lat="43.03727" lon="0.28452">
        <ele>452.468759</ele>
        <time>2022-08-09T14:56:49.417Z</time>
      </trkpt>
      <trkpt lat="43.03752" lon="0.28442">
        <ele>454.560238</ele>
        <time>2022-08-09T14:56:59.986Z</time>
      </trkpt>
      <trkpt lat="43.0382" lon="0.28384">
        <ele>460.83994</ele>
        <time>2022-08-09T14:57:40.254Z</time>
      </trkpt>
      <trkpt lat="43.03837" lon="0.28347">
        <ele>463.157308</ele>
        <time>2022-08-09T14:57:54.800Z</time>
      </trkpt>
      <trkpt lat="43.03861" lon="0.28235">
        <ele>467.565585</ele>
        <time>2022-08-09T14:58:26.433Z</time>
      </trkpt>
      <trkpt lat="43.03883" lon="0.28196">
        <ele>469.388742</ele>
        <time>2022-08-09T14:58:37.496Z</time>
      </trkpt>
      <trkpt lat="43.03889" lon="0.28173">
        <ele>470.322054</ele>
        <time>2022-08-09T14:58:42.899Z</time>
      </trkpt>
      <trkpt lat="43.03911" lon="0.28118">
        <ele>472.613654</ele>
        <time>2022-08-09T14:58:55.749Z</time>
      </trkpt>
      <trkpt lat="43.0392" lon="0.28039">
        <ele>475.334237</ele>
        <time>2022-08-09T14:59:14.753Z</time>
      </trkpt>
      <trkpt lat="43.03917" lon="0.28009">
        <ele>476.371568</ele>
        <time>2022-08-09T14:59:22.546Z</time>
      </trkpt>
      <trkpt lat="43.03924" lon="0.27975">
        <ele>477.574036</ele>
        <time>2022-08-09T14:59:30.362Z</time>
      </trkpt>
      <trkpt lat="43.03941" lon="0.27936">
        <ele>479.134549</ele>
        <time>2022-08-09T14:59:42.050Z</time>
      </trkpt>
      <trkpt lat="43.03974" lon="0.2789">
        <ele>481.783613</ele>
        <time>2022-08-09T14:59:59.690Z</time>
      </trkpt>
      <trkpt lat="43.03998" lon="0.27889">
        <ele>483.438195</ele>
        <time>2022-08-09T15:00:08.924Z</time>
      </trkpt>
      <trkpt lat="43.04028" lon="0.27917">
        <ele>485.88404</ele>
        <time>2022-08-09T15:00:24.823Z</time>
      </trkpt>
      <trkpt lat="43.04069" lon="0.27884">
        <ele>489.163407</ele>
        <time>2022-08-09T15:00:46.820Z</time>
      </trkpt>
      <trkpt lat="43.04087" lon="0.27839">
        <ele>491.726452</ele>
        <time>2022-08-09T15:01:04.033Z</time>
      </trkpt>
      <trkpt lat="43.04108" lon="0.27807">
        <ele>493.765987</ele>
        <time>2022-08-09T15:01:17.694Z</time>
      </trkpt>
      <trkpt lat="43.04122" lon="0.27773">
        <ele>495.423862</ele>
        <time>2022-08-09T15:01:28.444Z</time>
      </trkpt>
      <trkpt lat="43.04132" lon="0.27737">
        <ele>497.139137</ele>
        <time>2022-08-09T15:01:38.989Z</time>
      </trkpt>
      <trkpt lat="43.04141" lon="0.27652">
        <ele>500.875345</ele>
        <time>2022-08-09T15:02:01.417Z</time>
      </trkpt>
      <trkpt lat="43.0414" lon="0.27633">
        <ele>501.698118</ele>
        <time>2022-08-09T15:02:06.854Z</time>
      </trkpt>
      <trkpt lat="43.04133" lon="0.27622">
        <ele>502.322897</ele>
        <time>2022-08-09T15:02:10.932Z</time>
      </trkpt>
      <trkpt lat="43.04116" lon="0.27615">
        <ele>503.380325</ele>
        <time>2022-08-09T15:02:17.922Z</time>
      </trkpt>
      <trkpt lat="43.04085" lon="0.27624">
        <ele>505.826092</ele>
        <time>2022-08-09T15:02:29.555Z</time>
      </trkpt>
      <trkpt lat="43.04071" lon="0.27619">
        <ele>506.972022</ele>
        <time>2022-08-09T15:02:35.462Z</time>
      </trkpt>
      <trkpt lat="43.04004" lon="0.27534">
        <ele>514.150361</ele>
        <time>2022-08-09T15:03:15.341Z</time>
      </trkpt>
      <trkpt lat="43.03965" lon="0.27516">
        <ele>517.311779</ele>
        <time>2022-08-09T15:03:36.217Z</time>
      </trkpt>
      <trkpt lat="43.03946" lon="0.27496">
        <ele>520.064128</ele>
        <time>2022-08-09T15:03:52.046Z</time>
      </trkpt>
      <trkpt lat="43.03927" lon="0.27387">
        <ele>529.737592</ele>
        <time>2022-08-09T15:04:47.131Z</time>
      </trkpt>
      <trkpt lat="43.03925" lon="0.27338">
        <ele>534.005659</ele>
        <time>2022-08-09T15:05:10.927Z</time>
      </trkpt>
      <trkpt lat="43.03928" lon="0.27291">
        <ele>538.052425</ele>
        <time>2022-08-09T15:05:32.670Z</time>
      </trkpt>
      <trkpt lat="43.0392" lon="0.27237">
        <ele>541.035877</ele>
        <time>2022-08-09T15:05:54.812Z</time>
      </trkpt>
      <trkpt lat="43.03919" lon="0.27221">
        <ele>541.764064</ele>
        <time>2022-08-09T15:06:00.261Z</time>
      </trkpt>
      <trkpt lat="43.03931" lon="0.27162">
        <ele>544.746203</ele>
        <time>2022-08-09T15:06:21.654Z</time>
      </trkpt>
      <trkpt lat="43.03929" lon="0.27147">
        <ele>545.467448</ele>
        <time>2022-08-09T15:06:26.711Z</time>
      </trkpt>
      <trkpt lat="43.03911" lon="0.27122">
        <ele>547.156113</ele>
        <time>2022-08-09T15:06:36.247Z</time>
      </trkpt>
      <trkpt lat="43.03886" lon="0.27109">
        <ele>548.9226</ele>
        <time>2022-08-09T15:06:44.517Z</time>
      </trkpt>
      <trkpt lat="43.03873" lon="0.27114">
        <ele>549.846752</ele>
        <time>2022-08-09T15:06:47.771Z</time>
      </trkpt>
      <trkpt lat="43.03862" lon="0.27128">
        <ele>550.649613</ele>
        <time>2022-08-09T15:06:50.785Z</time>
      </trkpt>
      <trkpt lat="43.03852" lon="0.27161">
        <ele>551.096353</ele>
        <time>2022-08-09T15:06:55.009Z</time>
      </trkpt>
      <trkpt lat="43.03821" lon="0.27184">
        <ele>551.686839</ele>
        <time>2022-08-09T15:07:00.269Z</time>
      </trkpt>
      <trkpt lat="43.03762" lon="0.27258">
        <ele>553.055555</ele>
        <time>2022-08-09T15:07:14.347Z</time>
      </trkpt>
      <trkpt lat="43.03754" lon="0.27248">
        <ele>553.230763</ele>
        <time>2022-08-09T15:07:16.869Z</time>
      </trkpt>
      <trkpt lat="43.03754" lon="0.27237">
        <ele>553.366868</ele>
        <time>2022-08-09T15:07:18.852Z</time>
      </trkpt>
      <trkpt lat="43.03765" lon="0.27162">
        <ele>556.519776</ele>
        <time>2022-08-09T15:07:35.610Z</time>
      </trkpt>
      <trkpt lat="43.03775" lon="0.27002">
        <ele>565.049264</ele>
        <time>2022-08-09T15:08:30.183Z</time>
      </trkpt>
      <trkpt lat="43.03792" lon="0.2692">
        <ele>570.875868</ele>
        <time>2022-08-09T15:09:07.501Z</time>
      </trkpt>
      <trkpt lat="43.03813" lon="0.26838">
        <ele>577.549307</ele>
        <time>2022-08-09T15:09:43.801Z</time>
      </trkpt>
      <trkpt lat="43.03836" lon="0.26774">
        <ele>582.963457</ele>
        <time>2022-08-09T15:10:16.313Z</time>
      </trkpt>
      <trkpt lat="43.03837" lon="0.2676">
        <ele>584.02867</ele>
        <time>2022-08-09T15:10:22.690Z</time>
      </trkpt>
      <trkpt lat="43.03812" lon="0.2668">
        <ele>589.926616</ele>
        <time>2022-08-09T15:10:53.719Z</time>
      </trkpt>
      <trkpt lat="43.03797" lon="0.26646">
        <ele>592.53738</ele>
        <time>2022-08-09T15:11:05.954Z</time>
      </trkpt>
      <trkpt lat="43.03784" lon="0.2663">
        <ele>594.119037</ele>
        <time>2022-08-09T15:11:15.856Z</time>
      </trkpt>
      <trkpt lat="43.0377" lon="0.2663">
        <ele>595.323173</ele>
        <time>2022-08-09T15:11:23.627Z</time>
      </trkpt>
      <trkpt lat="43.03656" lon="0.2667">
        <ele>605.844946</ele>
        <time>2022-08-09T15:12:21.926Z</time>
      </trkpt>
      <trkpt lat="43.03647" lon="0.26663">
        <ele>606.7155</ele>
        <time>2022-08-09T15:12:27.215Z</time>
      </trkpt>
      <trkpt lat="43.03649" lon="0.26648">
        <ele>607.667949</ele>
        <time>2022-08-09T15:12:35.382Z</time>
      </trkpt>
      <trkpt lat="43.03684" lon="0.26614">
        <ele>611.420525</ele>
        <time>2022-08-09T15:12:53.933Z</time>
      </trkpt>
      <trkpt lat="43.03731" lon="0.26524">
        <ele>618.330331</ele>
        <time>2022-08-09T15:13:33.863Z</time>
      </trkpt>
      <trkpt lat="43.03741" lon="0.26494">
        <ele>620.129404</ele>
        <time>2022-08-09T15:13:48.599Z</time>
      </trkpt>
      <trkpt lat="43.03724" lon="0.26408">
        <ele>624.948503</ele>
        <time>2022-08-09T15:15:19.898Z</time>
      </trkpt>
      <trkpt lat="43.03664" lon="0.2636">
        <ele>630.156045</ele>
        <time>2022-08-09T15:15:52.402Z</time>
      </trkpt>
      <trkpt lat="43.03594" lon="0.2634">
        <ele>633.342103</ele>
        <time>2022-08-09T15:16:22.889Z</time>
      </trkpt>
      <trkpt lat="43.0357" lon="0.26336">
        <ele>634.325103</ele>
        <time>2022-08-09T15:16:33.004Z</time>
      </trkpt>
      <trkpt lat="43.0344" lon="0.26338">
        <ele>637.492308</ele>
        <time>2022-08-09T15:17:14.660Z</time>
      </trkpt>
      <trkpt lat="43.03328" lon="0.263">
        <ele>635.625323</ele>
        <time>2022-08-09T15:17:32.270Z</time>
      </trkpt>
      <trkpt lat="43.03208" lon="0.26279">
        <ele>634.435899</ele>
        <time>2022-08-09T15:17:48.772Z</time>
      </trkpt>
      <trkpt lat="43.03194" lon="0.26272">
        <ele>634.320145</ele>
        <time>2022-08-09T15:17:50.838Z</time>
      </trkpt>
      <trkpt lat="43.0316" lon="0.26166">
        <ele>635.190276</ele>
        <time>2022-08-09T15:18:17.638Z</time>
      </trkpt>
      <trkpt lat="43.03108" lon="0.26045">
        <ele>646.225938</ele>
        <time>2022-08-09T15:19:19.875Z</time>
      </trkpt>
      <trkpt lat="43.03026" lon="0.25808">
        <ele>671.196369</ele>
        <time>2022-08-09T15:21:55.782Z</time>
      </trkpt>
      <trkpt lat="43.02973" lon="0.25713">
        <ele>681.864726</ele>
        <time>2022-08-09T15:22:57.770Z</time>
      </trkpt>
      <trkpt lat="43.02893" lon="0.25592">
        <ele>692.706094</ele>
        <time>2022-08-09T15:24:04.183Z</time>
      </trkpt>
      <trkpt lat="43.02849" lon="0.25552">
        <ele>696.680055</ele>
        <time>2022-08-09T15:24:26.991Z</time>
      </trkpt>
      <trkpt lat="43.02805" lon="0.25524">
        <ele>699.683232</ele>
        <time>2022-08-09T15:24:45.868Z</time>
      </trkpt>
      <trkpt lat="43.02776" lon="0.25517">
        <ele>701.480211</ele>
        <time>2022-08-09T15:24:56.475Z</time>
      </trkpt>
      <trkpt lat="43.02616" lon="0.25529">
        <ele>712.915143</ele>
        <time>2022-08-09T15:26:16.889Z</time>
      </trkpt>
      <trkpt lat="43.0259" lon="0.25521">
        <ele>714.972168</ele>
        <time>2022-08-09T15:26:37.255Z</time>
      </trkpt>
      <trkpt lat="43.02574" lon="0.25507">
        <ele>716.471349</ele>
        <time>2022-08-09T15:26:49.615Z</time>
      </trkpt>
      <trkpt lat="43.02553" lon="0.2545">
        <ele>720.173614</ele>
        <time>2022-08-09T15:27:23.321Z</time>
      </trkpt>
      <trkpt lat="43.02543" lon="0.25408">
        <ele>721.476259</ele>
        <time>2022-08-09T15:27:44.622Z</time>
      </trkpt>
      <trkpt lat="43.0254" lon="0.25364">
        <ele>722.734129</ele>
        <time>2022-08-09T15:28:05.848Z</time>
      </trkpt>
      <trkpt lat="43.02555" lon="0.25242">
        <ele>726.216624</ele>
        <time>2022-08-09T15:28:54.090Z</time>
      </trkpt>
      <trkpt lat="43.02554" lon="0.25215">
        <ele>726.950729</ele>
        <time>2022-08-09T15:29:01.354Z</time>
      </trkpt>
      <trkpt lat="43.02499" lon="0.25054">
        <ele>720.137852</ele>
        <time>2022-08-09T15:29:37.909Z</time>
      </trkpt>
      <trkpt lat="43.02521" lon="0.25034">
        <ele>718.615126</ele>
        <time>2022-08-09T15:29:44.497Z</time>
      </trkpt>
      <trkpt lat="43.02568" lon="0.25029">
        <ele>715.151238</ele>
        <time>2022-08-09T15:29:55.786Z</time>
      </trkpt>
      <trkpt lat="43.02628" lon="0.24996">
        <ele>708.271468</ele>
        <time>2022-08-09T15:30:11.380Z</time>
      </trkpt>
      <trkpt lat="43.02647" lon="0.24991">
        <ele>706.252092</ele>
        <time>2022-08-09T15:30:15.918Z</time>
      </trkpt>
      <trkpt lat="43.02688" lon="0.2496">
        <ele>701.355626</ele>
        <time>2022-08-09T15:30:27.250Z</time>
      </trkpt>
      <trkpt lat="43.0274" lon="0.24945">
        <ele>697.020864</ele>
        <time>2022-08-09T15:30:40.604Z</time>
      </trkpt>
      <trkpt lat="43.02763" lon="0.24939">
        <ele>695.949806</ele>
        <time>2022-08-09T15:30:46.906Z</time>
      </trkpt>
      <trkpt lat="43.02776" lon="0.24927">
        <ele>695.229166</ele>
        <time>2022-08-09T15:30:50.995Z</time>
      </trkpt>
      <trkpt lat="43.028" lon="0.24855">
        <ele>692.572202</ele>
        <time>2022-08-09T15:31:07.944Z</time>
      </trkpt>
      <trkpt lat="43.02816" lon="0.24836">
        <ele>691.565773</ele>
        <time>2022-08-09T15:31:14.462Z</time>
      </trkpt>
      <trkpt lat="43.02846" lon="0.2481">
        <ele>689.932016</ele>
        <time>2022-08-09T15:31:24.924Z</time>
      </trkpt>
      <trkpt lat="43.02877" lon="0.248">
        <ele>689.18689</ele>
        <time>2022-08-09T15:31:34.738Z</time>
      </trkpt>
      <trkpt lat="43.02901" lon="0.24807">
        <ele>688.707453</ele>
        <time>2022-08-09T15:31:42.366Z</time>
      </trkpt>
      <trkpt lat="43.02943" lon="0.24856">
        <ele>687.64854</ele>
        <time>2022-08-09T15:31:59.006Z</time>
      </trkpt>
      <trkpt lat="43.02961" lon="0.24869">
        <ele>687.263538</ele>
        <time>2022-08-09T15:32:05.006Z</time>
      </trkpt>
      <trkpt lat="43.02976" lon="0.24872">
        <ele>686.969367</ele>
        <time>2022-08-09T15:32:09.598Z</time>
      </trkpt>
      <trkpt lat="43.0301" lon="0.24861">
        <ele>686.302947</ele>
        <time>2022-08-09T15:32:21.370Z</time>
      </trkpt>
      <trkpt lat="43.03028" lon="0.24864">
        <ele>687.089051</ele>
        <time>2022-08-09T15:32:28.719Z</time>
      </trkpt>
      <trkpt lat="43.03038" lon="0.24873">
        <ele>687.71481</ele>
        <time>2022-08-09T15:32:33.987Z</time>
      </trkpt>
      <trkpt lat="43.03053" lon="0.24909">
        <ele>689.309092</ele>
        <time>2022-08-09T15:32:48.419Z</time>
      </trkpt>
      <trkpt lat="43.0307" lon="0.24981">
        <ele>692.189522</ele>
        <time>2022-08-09T15:33:21.879Z</time>
      </trkpt>
      <trkpt lat="43.03075" lon="0.24984">
        <ele>692.481488</ele>
        <time>2022-08-09T15:33:26.185Z</time>
      </trkpt>
      <trkpt lat="43.03088" lon="0.24976">
        <ele>693.255237</ele>
        <time>2022-08-09T15:33:38.318Z</time>
      </trkpt>
      <trkpt lat="43.03111" lon="0.24947">
        <ele>694.883419</ele>
        <time>2022-08-09T15:34:00.989Z</time>
      </trkpt>
      <trkpt lat="43.03164" lon="0.24882">
        <ele>701.179153</ele>
        <time>2022-08-09T15:34:48.174Z</time>
      </trkpt>
      <trkpt lat="43.03184" lon="0.24863">
        <ele>703.578413</ele>
        <time>2022-08-09T15:35:06.032Z</time>
      </trkpt>
      <trkpt lat="43.03189" lon="0.24851">
        <ele>704.588569</ele>
        <time>2022-08-09T15:35:13.894Z</time>
      </trkpt>
      <trkpt lat="43.03181" lon="0.24845">
        <ele>705.546451</ele>
        <time>2022-08-09T15:35:22.035Z</time>
      </trkpt>
      <trkpt lat="43.03125" lon="0.24895">
        <ele>712.092226</ele>
        <time>2022-08-09T15:36:13.473Z</time>
      </trkpt>
      <trkpt lat="43.03102" lon="0.24902">
        <ele>714.796085</ele>
        <time>2022-08-09T15:36:33.515Z</time>
      </trkpt>
      <trkpt lat="43.03097" lon="0.24885">
        <ele>716.662478</ele>
        <time>2022-08-09T15:36:46.585Z</time>
      </trkpt>
      <trkpt lat="43.03092" lon="0.24795">
        <ele>725.913425</ele>
        <time>2022-08-09T15:37:49.845Z</time>
      </trkpt>
      <trkpt lat="43.03085" lon="0.24774">
        <ele>728.251055</ele>
        <time>2022-08-09T15:38:05.760Z</time>
      </trkpt>
      <trkpt lat="43.0306" lon="0.24734">
        <ele>733.588708</ele>
        <time>2022-08-09T15:38:41.901Z</time>
      </trkpt>
      <trkpt lat="43.03048" lon="0.24691">
        <ele>738.370589</ele>
        <time>2022-08-09T15:39:17.086Z</time>
      </trkpt>
      <trkpt lat="43.03081" lon="0.24662">
        <ele>741.612357</ele>
        <time>2022-08-09T15:39:48.248Z</time>
      </trkpt>
      <trkpt lat="43.03174" lon="0.246">
        <ele>749.869816</ele>
        <time>2022-08-09T15:40:50.271Z</time>
      </trkpt>
      <trkpt lat="43.03185" lon="0.24595">
        <ele>750.849958</ele>
        <time>2022-08-09T15:40:53.182Z</time>
      </trkpt>
      <trkpt lat="43.03203" lon="0.24601">
        <ele>752.302196</ele>
        <time>2022-08-09T15:40:56.321Z</time>
      </trkpt>
      <trkpt lat="43.03293" lon="0.24685">
        <ele>747.367704</ele>
        <time>2022-08-09T15:41:11.214Z</time>
      </trkpt>
      <trkpt lat="43.03318" lon="0.24696">
        <ele>745.921943</ele>
        <time>2022-08-09T15:41:14.571Z</time>
      </trkpt>
      <trkpt lat="43.03357" lon="0.24699">
        <ele>743.7529</ele>
        <time>2022-08-09T15:41:19.551Z</time>
      </trkpt>
      <trkpt lat="43.03409" lon="0.24665">
        <ele>737.391114</ele>
        <time>2022-08-09T15:41:26.633Z</time>
      </trkpt>
      <trkpt lat="43.03512" lon="0.24591">
        <ele>722.746311</ele>
        <time>2022-08-09T15:41:40.257Z</time>
      </trkpt>
      <trkpt lat="43.03689" lon="0.24429">
        <ele>692.926165</ele>
        <time>2022-08-09T15:42:05.134Z</time>
      </trkpt>
      <trkpt lat="43.03718" lon="0.24412">
        <ele>690.704327</ele>
        <time>2022-08-09T15:42:08.903Z</time>
      </trkpt>
      <trkpt lat="43.03866" lon="0.24359">
        <ele>680.76008</ele>
        <time>2022-08-09T15:42:29.506Z</time>
      </trkpt>
      <trkpt lat="43.03927" lon="0.24322">
        <ele>679.54677</ele>
        <time>2022-08-09T15:42:40.987Z</time>
      </trkpt>
      <trkpt lat="43.03955" lon="0.24294">
        <ele>678.920198</ele>
        <time>2022-08-09T15:42:47.438Z</time>
      </trkpt>
      <trkpt lat="43.03964" lon="0.24295">
        <ele>678.763078</ele>
        <time>2022-08-09T15:42:48.963Z</time>
      </trkpt>
      <trkpt lat="43.0399" lon="0.24331">
        <ele>678.098184</ele>
        <time>2022-08-09T15:42:55.272Z</time>
      </trkpt>
      <trkpt lat="43.0402" lon="0.24357">
        <ele>677.226489</ele>
        <time>2022-08-09T15:43:01.344Z</time>
      </trkpt>
      <trkpt lat="43.04048" lon="0.24369">
        <ele>676.410748</ele>
        <time>2022-08-09T15:43:06.022Z</time>
      </trkpt>
      <trkpt lat="43.04072" lon="0.24366">
        <ele>675.744616</ele>
        <time>2022-08-09T15:43:09.860Z</time>
      </trkpt>
      <trkpt lat="43.04121" lon="0.24353">
        <ele>674.33887</ele>
        <time>2022-08-09T15:43:17.347Z</time>
      </trkpt>
      <trkpt lat="43.04297" lon="0.24271">
        <ele>666.112478</ele>
        <time>2022-08-09T15:43:42.794Z</time>
      </trkpt>
      <trkpt lat="43.04338" lon="0.24221">
        <ele>662.957256</ele>
        <time>2022-08-09T15:43:50.153Z</time>
      </trkpt>
      <trkpt lat="43.04349" lon="0.24214">
        <ele>661.627331</ele>
        <time>2022-08-09T15:43:51.736Z</time>
      </trkpt>
      <trkpt lat="43.04383" lon="0.24218">
        <ele>658.024692</ele>
        <time>2022-08-09T15:43:56.101Z</time>
      </trkpt>
      <trkpt lat="43.04435" lon="0.24252">
        <ele>651.798732</ele>
        <time>2022-08-09T15:44:03.024Z</time>
      </trkpt>
      <trkpt lat="43.04506" lon="0.24341">
        <ele>639.326275</ele>
        <time>2022-08-09T15:44:14.511Z</time>
      </trkpt>
      <trkpt lat="43.04517" lon="0.24365">
        <ele>635.362387</ele>
        <time>2022-08-09T15:44:16.901Z</time>
      </trkpt>
      <trkpt lat="43.04538" lon="0.24443">
        <ele>623.993324</ele>
        <time>2022-08-09T15:44:23.795Z</time>
      </trkpt>
      <trkpt lat="43.04555" lon="0.24469">
        <ele>619.119816</ele>
        <time>2022-08-09T15:44:26.760Z</time>
      </trkpt>
      <trkpt lat="43.0458" lon="0.24499">
        <ele>612.949647</ele>
        <time>2022-08-09T15:44:30.506Z</time>
      </trkpt>
      <trkpt lat="43.04617" lon="0.24498">
        <ele>606.05267</ele>
        <time>2022-08-09T15:44:34.735Z</time>
      </trkpt>
      <trkpt lat="43.04618" lon="0.24531">
        <ele>601.619898</ele>
        <time>2022-08-09T15:44:37.560Z</time>
      </trkpt>
      <trkpt lat="43.0464" lon="0.24598">
        <ele>591.900477</ele>
        <time>2022-08-09T15:44:43.624Z</time>
      </trkpt>
      <trkpt lat="43.04648" lon="0.24602">
        <ele>590.213573</ele>
        <time>2022-08-09T15:44:44.686Z</time>
      </trkpt>
      <trkpt lat="43.04661" lon="0.24598">
        <ele>587.827914</ele>
        <time>2022-08-09T15:44:46.194Z</time>
      </trkpt>
      <trkpt lat="43.04683" lon="0.24572">
        <ele>582.523597</ele>
        <time>2022-08-09T15:44:49.485Z</time>
      </trkpt>
      <trkpt lat="43.04691" lon="0.24569">
        <ele>580.857505</ele>
        <time>2022-08-09T15:44:50.578Z</time>
      </trkpt>
      <trkpt lat="43.04694" lon="0.24578">
        <ele>579.48889</ele>
        <time>2022-08-09T15:44:51.451Z</time>
      </trkpt>
      <trkpt lat="43.04665" lon="0.24634">
        <ele>571.462374</ele>
        <time>2022-08-09T15:44:57.399Z</time>
      </trkpt>
      <trkpt lat="43.04618" lon="0.24703">
        <ele>560.847777</ele>
        <time>2022-08-09T15:45:05.463Z</time>
      </trkpt>
      <trkpt lat="43.0459" lon="0.24826">
        <ele>546.740936</ele>
        <time>2022-08-09T15:45:16.423Z</time>
      </trkpt>
      <trkpt lat="43.04601" lon="0.24872">
        <ele>541.902522</ele>
        <time>2022-08-09T15:45:20.593Z</time>
      </trkpt>
      <trkpt lat="43.04581" lon="0.24885">
        <ele>538.890729</ele>
        <time>2022-08-09T15:45:23.175Z</time>
      </trkpt>
      <trkpt lat="43.04551" lon="0.24882">
        <ele>534.799422</ele>
        <time>2022-08-09T15:45:26.753Z</time>
      </trkpt>
      <trkpt lat="43.04532" lon="0.24887">
        <ele>532.115511</ele>
        <time>2022-08-09T15:45:29.100Z</time>
      </trkpt>
      <trkpt lat="43.04519" lon="0.24902">
        <ele>529.833914</ele>
        <time>2022-08-09T15:45:31.077Z</time>
      </trkpt>
      <trkpt lat="43.0447" lon="0.24983">
        <ele>521.141967</ele>
        <time>2022-08-09T15:45:40.253Z</time>
      </trkpt>
      <trkpt lat="43.04415" lon="0.25041">
        <ele>514.52598</ele>
        <time>2022-08-09T15:45:48.940Z</time>
      </trkpt>
      <trkpt lat="43.04297" lon="0.25141">
        <ele>502.698242</ele>
        <time>2022-08-09T15:46:06.191Z</time>
      </trkpt>
      <trkpt lat="43.04235" lon="0.25215">
        <ele>496.277481</ele>
        <time>2022-08-09T15:46:16.722Z</time>
      </trkpt>
      <trkpt lat="43.04204" lon="0.2524">
        <ele>493.656937</ele>
        <time>2022-08-09T15:46:21.303Z</time>
      </trkpt>
      <trkpt lat="43.04229" lon="0.25266">
        <ele>491.644778</ele>
        <time>2022-08-09T15:46:25.369Z</time>
      </trkpt>
      <trkpt lat="43.04281" lon="0.25279">
        <ele>488.322429</ele>
        <time>2022-08-09T15:46:32.136Z</time>
      </trkpt>
      <trkpt lat="43.04316" lon="0.25298">
        <ele>485.900842</ele>
        <time>2022-08-09T15:46:37.055Z</time>
      </trkpt>
      <trkpt lat="43.04373" lon="0.25345">
        <ele>481.997523</ele>
        <time>2022-08-09T15:46:45.911Z</time>
      </trkpt>
      <trkpt lat="43.04387" lon="0.25373">
        <ele>480.86083</ele>
        <time>2022-08-09T15:46:49.272Z</time>
      </trkpt>
      <trkpt lat="43.04402" lon="0.25383">
        <ele>480.107296</ele>
        <time>2022-08-09T15:46:51.571Z</time>
      </trkpt>
      <trkpt lat="43.04447" lon="0.25387">
        <ele>478.000295</ele>
        <time>2022-08-09T15:46:57.826Z</time>
      </trkpt>
      <trkpt lat="43.04506" lon="0.25348">
        <ele>474.998904</ele>
        <time>2022-08-09T15:47:06.643Z</time>
      </trkpt>
      <trkpt lat="43.04507" lon="0.25357">
        <ele>474.702959</ele>
        <time>2022-08-09T15:47:07.574Z</time>
      </trkpt>
      <trkpt lat="43.04512" lon="0.25369">
        <ele>474.487597</ele>
        <time>2022-08-09T15:47:08.931Z</time>
      </trkpt>
      <trkpt lat="43.04528" lon="0.25384">
        <ele>474.326942</ele>
        <time>2022-08-09T15:47:11.773Z</time>
      </trkpt>
      <trkpt lat="43.04571" lon="0.25396">
        <ele>473.970765</ele>
        <time>2022-08-09T15:47:18.773Z</time>
      </trkpt>
      <trkpt lat="43.04581" lon="0.25406">
        <ele>473.862969</ele>
        <time>2022-08-09T15:47:21.113Z</time>
      </trkpt>
      <trkpt lat="43.04582" lon="0.25435">
        <ele>473.688807</ele>
        <time>2022-08-09T15:47:24.708Z</time>
      </trkpt>
      <trkpt lat="43.04574" lon="0.25485">
        <ele>473.383443</ele>
        <time>2022-08-09T15:47:33.574Z</time>
      </trkpt>
      <trkpt lat="43.04564" lon="0.25519">
        <ele>473.162673</ele>
        <time>2022-08-09T15:47:40.544Z</time>
      </trkpt>
      <trkpt lat="43.0456" lon="0.25529">
        <ele>473.091067</ele>
        <time>2022-08-09T15:47:42.828Z</time>
      </trkpt>
      <trkpt lat="43.04558" lon="0.25543">
        <ele>473.219343</ele>
        <time>2022-08-09T15:47:46.813Z</time>
      </trkpt>
      <trkpt lat="43.04564" lon="0.2557">
        <ele>473.653657</ele>
        <time>2022-08-09T15:47:51.390Z</time>
      </trkpt>
      <trkpt lat="43.04591" lon="0.25617">
        <ele>474.559846</ele>
        <time>2022-08-09T15:48:04.137Z</time>
      </trkpt>
      <trkpt lat="43.04594" lon="0.25666">
        <ele>475.319814</ele>
        <time>2022-08-09T15:48:15.710Z</time>
      </trkpt>
      <trkpt lat="43.04606" lon="0.25668">
        <ele>475.580168</ele>
        <time>2022-08-09T15:48:19.790Z</time>
      </trkpt>
      <trkpt lat="43.04626" lon="0.2566">
        <ele>476.013728</ele>
        <time>2022-08-09T15:48:23.637Z</time>
      </trkpt>
      <trkpt lat="43.04655" lon="0.25643">
        <ele>476.656652</ele>
        <time>2022-08-09T15:48:32.143Z</time>
      </trkpt>
      <trkpt lat="43.04686" lon="0.25602">
        <ele>477.157038</ele>
        <time>2022-08-09T15:48:40.143Z</time>
      </trkpt>
      <trkpt lat="43.04791" lon="0.25493">
        <ele>478.393415</ele>
        <time>2022-08-09T15:49:00.842Z</time>
      </trkpt>
      <trkpt lat="43.04885" lon="0.2544">
        <ele>481.940815</ele>
        <time>2022-08-09T15:49:26.151Z</time>
      </trkpt>
      <trkpt lat="43.04995" lon="0.25417">
        <ele>487.104385</ele>
        <time>2022-08-09T15:50:05.314Z</time>
      </trkpt>
      <trkpt lat="43.05106" lon="0.25383">
        <ele>496.349753</ele>
        <time>2022-08-09T15:50:58.634Z</time>
      </trkpt>
      <trkpt lat="43.0514" lon="0.25386">
        <ele>499.159877</ele>
        <time>2022-08-09T15:51:18.723Z</time>
      </trkpt>
      <trkpt lat="43.05173" lon="0.25417">
        <ele>501.551311</ele>
        <time>2022-08-09T15:51:43.935Z</time>
      </trkpt>
      <trkpt lat="43.05242" lon="0.25539">
        <ele>507.241856</ele>
        <time>2022-08-09T15:52:31.412Z</time>
      </trkpt>
      <trkpt lat="43.05271" lon="0.2558">
        <ele>508.952129</ele>
        <time>2022-08-09T15:52:36.372Z</time>
      </trkpt>
      <trkpt lat="43.05278" lon="0.25581">
        <ele>508.413308</ele>
        <time>2022-08-09T15:52:36.961Z</time>
      </trkpt>
      <trkpt lat="43.05293" lon="0.25569">
        <ele>506.896559</ele>
        <time>2022-08-09T15:52:39.033Z</time>
      </trkpt>
      <trkpt lat="43.05303" lon="0.25549">
        <ele>505.396481</ele>
        <time>2022-08-09T15:52:40.558Z</time>
      </trkpt>
      <trkpt lat="43.0528" lon="0.25399">
        <ele>495.938557</ele>
        <time>2022-08-09T15:52:50.113Z</time>
      </trkpt>
      <trkpt lat="43.05278" lon="0.2538">
        <ele>494.743301</ele>
        <time>2022-08-09T15:52:51.325Z</time>
      </trkpt>
      <trkpt lat="43.05284" lon="0.25358">
        <ele>493.417293</ele>
        <time>2022-08-09T15:52:52.755Z</time>
      </trkpt>
      <trkpt lat="43.05307" lon="0.25318">
        <ele>490.968616</ele>
        <time>2022-08-09T15:52:55.918Z</time>
      </trkpt>
      <trkpt lat="43.05391" lon="0.25244">
        <ele>484.318155</ele>
        <time>2022-08-09T15:53:05.170Z</time>
      </trkpt>
      <trkpt lat="43.05408" lon="0.25242">
        <ele>483.165267</ele>
        <time>2022-08-09T15:53:06.894Z</time>
      </trkpt>
      <trkpt lat="43.05451" lon="0.25271">
        <ele>480.199176</ele>
        <time>2022-08-09T15:53:12.203Z</time>
      </trkpt>
      <trkpt lat="43.0547" lon="0.25277">
        <ele>478.985035</ele>
        <time>2022-08-09T15:53:14.228Z</time>
      </trkpt>
      <trkpt lat="43.055" lon="0.25308">
        <ele>476.765886</ele>
        <time>2022-08-09T15:53:17.888Z</time>
      </trkpt>
      <trkpt lat="43.05508" lon="0.2531">
        <ele>476.251987</ele>
        <time>2022-08-09T15:53:18.704Z</time>
      </trkpt>
      <trkpt lat="43.05518" lon="0.25303">
        <ele>475.562533</ele>
        <time>2022-08-09T15:53:19.754Z</time>
      </trkpt>
      <trkpt lat="43.05522" lon="0.25264">
        <ele>473.85019</ele>
        <time>2022-08-09T15:53:22.236Z</time>
      </trkpt>
      <trkpt lat="43.05508" lon="0.25151">
        <ele>467.79322</ele>
        <time>2022-08-09T15:53:29.438Z</time>
      </trkpt>
      <trkpt lat="43.0552" lon="0.25057">
        <ele>461.792119</ele>
        <time>2022-08-09T15:53:35.529Z</time>
      </trkpt>
      <trkpt lat="43.05567" lon="0.24988">
        <ele>455.844852</ele>
        <time>2022-08-09T15:53:41.631Z</time>
      </trkpt>
      <trkpt lat="43.05595" lon="0.24964">
        <ele>454.485889</ele>
        <time>2022-08-09T15:53:44.507Z</time>
      </trkpt>
      <trkpt lat="43.05665" lon="0.24965">
        <ele>451.708194</ele>
        <time>2022-08-09T15:53:51.596Z</time>
      </trkpt>
      <trkpt lat="43.05681" lon="0.24959">
        <ele>451.072983</ele>
        <time>2022-08-09T15:53:53.480Z</time>
      </trkpt>
      <trkpt lat="43.05678" lon="0.24938">
        <ele>450.456396</ele>
        <time>2022-08-09T15:53:55.237Z</time>
      </trkpt>
      <trkpt lat="43.05643" lon="0.24891">
        <ele>448.578169</ele>
        <time>2022-08-09T15:54:00.559Z</time>
      </trkpt>
      <trkpt lat="43.05646" lon="0.24869">
        <ele>448.142016</ele>
        <time>2022-08-09T15:54:02.300Z</time>
      </trkpt>
      <trkpt lat="43.05657" lon="0.24847">
        <ele>447.65764</ele>
        <time>2022-08-09T15:54:04.272Z</time>
      </trkpt>
      <trkpt lat="43.0568" lon="0.2481">
        <ele>446.747007</ele>
        <time>2022-08-09T15:54:07.856Z</time>
      </trkpt>
      <trkpt lat="43.05734" lon="0.24746">
        <ele>444.90447</ele>
        <time>2022-08-09T15:54:15.373Z</time>
      </trkpt>
      <trkpt lat="43.05825" lon="0.24667">
        <ele>442.326883</ele>
        <time>2022-08-09T15:54:26.955Z</time>
      </trkpt>
      <trkpt lat="43.05848" lon="0.24653">
        <ele>441.746916</ele>
        <time>2022-08-09T15:54:29.728Z</time>
      </trkpt>
      <trkpt lat="43.05878" lon="0.24647">
        <ele>441.051293</ele>
        <time>2022-08-09T15:54:33.148Z</time>
      </trkpt>
      <trkpt lat="43.05941" lon="0.24645">
        <ele>439.459406</ele>
        <time>2022-08-09T15:54:39.876Z</time>
      </trkpt>
      <trkpt lat="43.05941" lon="0.24645">
        <ele>439.433616</ele>
        <time>2022-08-09T15:54:39.942Z</time>
      </trkpt>
      <trkpt lat="43.05953" lon="0.2464">
        <ele>439.022762</ele>
        <time>2022-08-09T15:54:41.182Z</time>
      </trkpt>
      <trkpt lat="43.05978" lon="0.24613">
        <ele>437.892382</ele>
        <time>2022-08-09T15:54:44.301Z</time>
      </trkpt>
      <trkpt lat="43.05997" lon="0.24604">
        <ele>437.201215</ele>
        <time>2022-08-09T15:54:46.225Z</time>
      </trkpt>
      <trkpt lat="43.06053" lon="0.24619">
        <ele>435.167368</ele>
        <time>2022-08-09T15:54:51.996Z</time>
      </trkpt>
      <trkpt lat="43.06069" lon="0.24614">
        <ele>434.600631</ele>
        <time>2022-08-09T15:54:53.560Z</time>
      </trkpt>
      <trkpt lat="43.06077" lon="0.24609">
        <ele>434.280592</ele>
        <time>2022-08-09T15:54:54.443Z</time>
      </trkpt>
      <trkpt lat="43.0613" lon="0.24594">
        <ele>432.22637</ele>
        <time>2022-08-09T15:54:59.833Z</time>
      </trkpt>
      <trkpt lat="43.06171" lon="0.2459">
        <ele>430.58209</ele>
        <time>2022-08-09T15:55:03.680Z</time>
      </trkpt>
      <trkpt lat="43.06264" lon="0.24597">
        <ele>426.801992</ele>
        <time>2022-08-09T15:55:12.744Z</time>
      </trkpt>
      <trkpt lat="43.06327" lon="0.24613">
        <ele>424.41556</ele>
        <time>2022-08-09T15:55:19.198Z</time>
      </trkpt>
      <trkpt lat="43.06352" lon="0.24592">
        <ele>423.315225</ele>
        <time>2022-08-09T15:55:22.255Z</time>
      </trkpt>
      <trkpt lat="43.06387" lon="0.24626">
        <ele>421.740179</ele>
        <time>2022-08-09T15:55:26.353Z</time>
      </trkpt>
      <trkpt lat="43.064" lon="0.2463">
        <ele>421.246486</ele>
        <time>2022-08-09T15:55:27.726Z</time>
      </trkpt>
      <trkpt lat="43.06408" lon="0.24628">
        <ele>420.928514</ele>
        <time>2022-08-09T15:55:28.539Z</time>
      </trkpt>
      <trkpt lat="43.06419" lon="0.24615">
        <ele>420.42101</ele>
        <time>2022-08-09T15:55:29.800Z</time>
      </trkpt>
      <trkpt lat="43.06435" lon="0.24566">
        <ele>419.199659</ele>
        <time>2022-08-09T15:55:33.761Z</time>
      </trkpt>
      <trkpt lat="43.06447" lon="0.24556">
        <ele>418.885139</ele>
        <time>2022-08-09T15:55:35.581Z</time>
      </trkpt>
      <trkpt lat="43.06458" lon="0.24563">
        <ele>418.586793</ele>
        <time>2022-08-09T15:55:36.823Z</time>
      </trkpt>
      <trkpt lat="43.0646" lon="0.24625">
        <ele>417.51455</ele>
        <time>2022-08-09T15:55:41.596Z</time>
      </trkpt>
      <trkpt lat="43.06479" lon="0.24646">
        <ele>416.934098</ele>
        <time>2022-08-09T15:55:44.315Z</time>
      </trkpt>
      <trkpt lat="43.0649" lon="0.24649">
        <ele>416.676144</ele>
        <time>2022-08-09T15:55:45.445Z</time>
      </trkpt>
      <trkpt lat="43.06575" lon="0.24659">
        <ele>414.990874</ele>
        <time>2022-08-09T15:55:55.072Z</time>
      </trkpt>
      <trkpt lat="43.06665" lon="0.24687">
        <ele>413.782938</ele>
        <time>2022-08-09T15:56:06.574Z</time>
      </trkpt>
      <trkpt lat="43.06759" lon="0.24651">
        <ele>411.883449</ele>
        <time>2022-08-09T15:56:17.939Z</time>
      </trkpt>
      <trkpt lat="43.06815" lon="0.24643">
        <ele>410.291347</ele>
        <time>2022-08-09T15:56:23.792Z</time>
      </trkpt>
      <trkpt lat="43.06849" lon="0.24647">
        <ele>409.314145</ele>
        <time>2022-08-09T15:56:27.188Z</time>
      </trkpt>
      <trkpt lat="43.0698" lon="0.24683">
        <ele>404.599762</ele>
        <time>2022-08-09T15:56:40.294Z</time>
      </trkpt>
      <trkpt lat="43.06995" lon="0.24695">
        <ele>403.890473</ele>
        <time>2022-08-09T15:56:42.029Z</time>
      </trkpt>
      <trkpt lat="43.07021" lon="0.24736">
        <ele>402.30595</ele>
        <time>2022-08-09T15:56:45.940Z</time>
      </trkpt>
      <trkpt lat="43.07032" lon="0.24744">
        <ele>401.847868</ele>
        <time>2022-08-09T15:56:47.083Z</time>
      </trkpt>
      <trkpt lat="43.07107" lon="0.24703">
        <ele>399.12261</ele>
        <time>2022-08-09T15:56:54.934Z</time>
      </trkpt>
      <trkpt lat="43.07122" lon="0.24704">
        <ele>398.649091</ele>
        <time>2022-08-09T15:56:56.432Z</time>
      </trkpt>
      <trkpt lat="43.07192" lon="0.24768">
        <ele>396.017009</ele>
        <time>2022-08-09T15:57:05.142Z</time>
      </trkpt>
      <trkpt lat="43.07248" lon="0.24833">
        <ele>394.50885</ele>
        <time>2022-08-09T15:57:13.418Z</time>
      </trkpt>
      <trkpt lat="43.07276" lon="0.24828">
        <ele>394.078924</ele>
        <time>2022-08-09T15:57:16.560Z</time>
      </trkpt>
      <trkpt lat="43.07324" lon="0.248">
        <ele>393.283919</ele>
        <time>2022-08-09T15:57:22.590Z</time>
      </trkpt>
      <trkpt lat="43.07378" lon="0.2477">
        <ele>392.375565</ele>
        <time>2022-08-09T15:57:29.970Z</time>
      </trkpt>
      <trkpt lat="43.07402" lon="0.24774">
        <ele>391.940594</ele>
        <time>2022-08-09T15:57:32.800Z</time>
      </trkpt>
      <trkpt lat="43.07427" lon="0.24792">
        <ele>391.438432</ele>
        <time>2022-08-09T15:57:36.254Z</time>
      </trkpt>
      <trkpt lat="43.07717" lon="0.24918">
        <ele>385.42035</ele>
        <time>2022-08-09T15:58:09.111Z</time>
      </trkpt>
      <trkpt lat="43.07746" lon="0.24955">
        <ele>384.836981</ele>
        <time>2022-08-09T15:58:13.616Z</time>
      </trkpt>
      <trkpt lat="43.07759" lon="0.24983">
        <ele>384.48643</ele>
        <time>2022-08-09T15:58:16.330Z</time>
      </trkpt>
      <trkpt lat="43.0777" lon="0.24988">
        <ele>384.322253</ele>
        <time>2022-08-09T15:58:17.618Z</time>
      </trkpt>
      <trkpt lat="43.0783" lon="0.24985">
        <ele>383.441041</ele>
        <time>2022-08-09T15:58:24.745Z</time>
      </trkpt>
      <trkpt lat="43.07873" lon="0.24969">
        <ele>382.787111</ele>
        <time>2022-08-09T15:58:30.312Z</time>
      </trkpt>
      <trkpt lat="43.07883" lon="0.24933">
        <ele>382.291146</ele>
        <time>2022-08-09T15:58:33.752Z</time>
      </trkpt>
      <trkpt lat="43.07887" lon="0.24866">
        <ele>381.43481</ele>
        <time>2022-08-09T15:58:39.398Z</time>
      </trkpt>
      <trkpt lat="43.07899" lon="0.2485">
        <ele>381.138271</ele>
        <time>2022-08-09T15:58:41.270Z</time>
      </trkpt>
      <trkpt lat="43.07922" lon="0.24835">
        <ele>380.697156</ele>
        <time>2022-08-09T15:58:44.007Z</time>
      </trkpt>
      <trkpt lat="43.08019" lon="0.24816">
        <ele>379.187387</ele>
        <time>2022-08-09T15:58:54.555Z</time>
      </trkpt>
      <trkpt lat="43.08081" lon="0.24829">
        <ele>378.426035</ele>
        <time>2022-08-09T15:59:01.444Z</time>
      </trkpt>
      <trkpt lat="43.08098" lon="0.24853">
        <ele>378.124022</ele>
        <time>2022-08-09T15:59:03.893Z</time>
      </trkpt>
      <trkpt lat="43.08107" lon="0.24891">
        <ele>377.76188</ele>
        <time>2022-08-09T15:59:09.997Z</time>
      </trkpt>
      <trkpt lat="43.08112" lon="0.24896">
        <ele>377.684664</ele>
        <time>2022-08-09T15:59:10.547Z</time>
      </trkpt>
      <trkpt lat="43.08119" lon="0.24895">
        <ele>377.599425</ele>
        <time>2022-08-09T15:59:13.773Z</time>
      </trkpt>
      <trkpt lat="43.08137" lon="0.24873">
        <ele>377.573295</ele>
        <time>2022-08-09T15:59:18.142Z</time>
      </trkpt>
      <trkpt lat="43.08178" lon="0.24768">
        <ele>378.032218</ele>
        <time>2022-08-09T15:59:37.198Z</time>
      </trkpt>
      <trkpt lat="43.08187" lon="0.24754">
        <ele>378.104441</ele>
        <time>2022-08-09T15:59:39.796Z</time>
      </trkpt>
      <trkpt lat="43.0825" lon="0.24731">
        <ele>378.374867</ele>
        <time>2022-08-09T15:59:48.932Z</time>
      </trkpt>
      <trkpt lat="43.08292" lon="0.24736">
        <ele>376.861297</ele>
        <time>2022-08-09T15:59:53.639Z</time>
      </trkpt>
      <trkpt lat="43.08359" lon="0.24773">
        <ele>374.206716</ele>
        <time>2022-08-09T16:00:00.871Z</time>
      </trkpt>
      <trkpt lat="43.08494" lon="0.24874">
        <ele>368.192115</ele>
        <time>2022-08-09T16:00:15.026Z</time>
      </trkpt>
      <trkpt lat="43.08608" lon="0.24975">
        <ele>364.077958</ele>
        <time>2022-08-09T16:00:29.537Z</time>
      </trkpt>
      <trkpt lat="43.0866" lon="0.25007">
        <ele>363.553062</ele>
        <time>2022-08-09T16:00:35.871Z</time>
      </trkpt>
      <trkpt lat="43.08669" lon="0.25007">
        <ele>363.470275</ele>
        <time>2022-08-09T16:00:36.992Z</time>
      </trkpt>
      <trkpt lat="43.08722" lon="0.2499">
        <ele>362.971345</ele>
        <time>2022-08-09T16:00:47.159Z</time>
      </trkpt>
      <trkpt lat="43.0879" lon="0.2496">
        <ele>362.868504</ele>
        <time>2022-08-09T16:01:00.232Z</time>
      </trkpt>
      <trkpt lat="43.08811" lon="0.2496">
        <ele>362.877015</ele>
        <time>2022-08-09T16:01:03.379Z</time>
      </trkpt>
      <trkpt lat="43.08837" lon="0.24969">
        <ele>362.887656</ele>
        <time>2022-08-09T16:01:07.037Z</time>
      </trkpt>
      <trkpt lat="43.08841" lon="0.24971">
        <ele>362.889283</ele>
        <time>2022-08-09T16:01:07.575Z</time>
      </trkpt>
      <trkpt lat="43.08858" lon="0.24977">
        <ele>362.896164</ele>
        <time>2022-08-09T16:01:10.021Z</time>
      </trkpt>
      <trkpt lat="43.08888" lon="0.24992">
        <ele>362.909072</ele>
        <time>2022-08-09T16:01:13.944Z</time>
      </trkpt>
      <trkpt lat="43.08987" lon="0.25067">
        <ele>361.118522</ele>
        <time>2022-08-09T16:01:29.695Z</time>
      </trkpt>
      <trkpt lat="43.0901" lon="0.25095">
        <ele>360.516043</ele>
        <time>2022-08-09T16:01:32.732Z</time>
      </trkpt>
      <trkpt lat="43.09019" lon="0.25119">
        <ele>360.128413</ele>
        <time>2022-08-09T16:01:34.736Z</time>
      </trkpt>
      <trkpt lat="43.09023" lon="0.2516">
        <ele>359.540892</ele>
        <time>2022-08-09T16:01:37.724Z</time>
      </trkpt>
      <trkpt lat="43.09004" lon="0.25212">
        <ele>358.199679</ele>
        <time>2022-08-09T16:01:41.939Z</time>
      </trkpt>
      <trkpt lat="43.09002" lon="0.25264">
        <ele>356.900416</ele>
        <time>2022-08-09T16:01:45.718Z</time>
      </trkpt>
      <trkpt lat="43.08964" lon="0.25443">
        <ele>352.816739</ele>
        <time>2022-08-09T16:01:59.385Z</time>
      </trkpt>
      <trkpt lat="43.08983" lon="0.25508">
        <ele>351.974057</ele>
        <time>2022-08-09T16:02:04.928Z</time>
      </trkpt>
      <trkpt lat="43.09021" lon="0.25597">
        <ele>350.739659</ele>
        <time>2022-08-09T16:02:14.293Z</time>
      </trkpt>
      <trkpt lat="43.0903" lon="0.25642">
        <ele>350.2497</ele>
        <time>2022-08-09T16:02:18.832Z</time>
      </trkpt>
      <trkpt lat="43.09028" lon="0.25696">
        <ele>349.855544</ele>
        <time>2022-08-09T16:02:24.121Z</time>
      </trkpt>
      <trkpt lat="43.09049" lon="0.25785">
        <ele>349.188467</ele>
        <time>2022-08-09T16:02:32.406Z</time>
      </trkpt>
      <trkpt lat="43.0905" lon="0.25812">
        <ele>348.988781</ele>
        <time>2022-08-09T16:02:34.918Z</time>
      </trkpt>
      <trkpt lat="43.09044" lon="0.25847">
        <ele>348.731065</ele>
        <time>2022-08-09T16:02:38.055Z</time>
      </trkpt>
      <trkpt lat="43.09041" lon="0.25854">
        <ele>348.671664</ele>
        <time>2022-08-09T16:02:38.807Z</time>
      </trkpt>
      <trkpt lat="43.09034" lon="0.25887">
        <ele>348.292255</ele>
        <time>2022-08-09T16:02:41.739Z</time>
      </trkpt>
      <trkpt lat="43.09033" lon="0.25936">
        <ele>347.618877</ele>
        <time>2022-08-09T16:02:45.672Z</time>
      </trkpt>
      <trkpt lat="43.09052" lon="0.2599">
        <ele>346.783564</ele>
        <time>2022-08-09T16:02:50.486Z</time>
      </trkpt>
      <trkpt lat="43.09065" lon="0.26038">
        <ele>346.08592</ele>
        <time>2022-08-09T16:02:54.455Z</time>
      </trkpt>
      <trkpt lat="43.09086" lon="0.2606">
        <ele>345.589782</ele>
        <time>2022-08-09T16:02:57.352Z</time>
      </trkpt>
      <trkpt lat="43.09139" lon="0.26081">
        <ele>344.464608</ele>
        <time>2022-08-09T16:03:03.370Z</time>
      </trkpt>
      <trkpt lat="43.09158" lon="0.26108">
        <ele>343.87009</ele>
        <time>2022-08-09T16:03:06.477Z</time>
      </trkpt>
      <trkpt lat="43.09175" lon="0.26154">
        <ele>343.063479</ele>
        <time>2022-08-09T16:03:10.666Z</time>
      </trkpt>
      <trkpt lat="43.09189" lon="0.26182">
        <ele>342.524926</ele>
        <time>2022-08-09T16:03:13.468Z</time>
      </trkpt>
      <trkpt lat="43.09202" lon="0.26192">
        <ele>342.196666</ele>
        <time>2022-08-09T16:03:15.055Z</time>
      </trkpt>
      <trkpt lat="43.0923" lon="0.26198">
        <ele>341.583411</ele>
        <time>2022-08-09T16:03:18.031Z</time>
      </trkpt>
      <trkpt lat="43.09337" lon="0.26169">
        <ele>339.121255</ele>
        <time>2022-08-09T16:03:29.226Z</time>
      </trkpt>
      <trkpt lat="43.09369" lon="0.2617">
        <ele>338.378619</ele>
        <time>2022-08-09T16:03:32.660Z</time>
      </trkpt>
      <trkpt lat="43.09403" lon="0.26165">
        <ele>337.594668</ele>
        <time>2022-08-09T16:03:36.454Z</time>
      </trkpt>
      <trkpt lat="43.094" lon="0.2619">
        <ele>337.177322</ele>
        <time>2022-08-09T16:03:38.584Z</time>
      </trkpt>
      <trkpt lat="43.09406" lon="0.2626">
        <ele>337.178298</ele>
        <time>2022-08-09T16:03:44.846Z</time>
      </trkpt>
      <trkpt lat="43.09408" lon="0.26285">
        <ele>337.178644</ele>
        <time>2022-08-09T16:03:47.280Z</time>
      </trkpt>
      <trkpt lat="43.09414" lon="0.26445">
        <ele>337.256612</ele>
        <time>2022-08-09T16:04:07.737Z</time>
      </trkpt>
      <trkpt lat="43.09411" lon="0.26468">
        <ele>337.443107</ele>
        <time>2022-08-09T16:04:11.351Z</time>
      </trkpt>
      <trkpt lat="43.09338" lon="0.26731">
        <ele>339.819999</ele>
        <time>2022-08-09T16:04:51.145Z</time>
      </trkpt>
      <trkpt lat="43.09296" lon="0.26913">
        <ele>341.712766</ele>
        <time>2022-08-09T16:05:19.458Z</time>
      </trkpt>
      <trkpt lat="43.09266" lon="0.27027">
        <ele>343.257616</ele>
        <time>2022-08-09T16:05:39.099Z</time>
      </trkpt>
      <trkpt lat="43.0908" lon="0.2762">
        <ele>351.628514</ele>
        <time>2022-08-09T16:07:22.754Z</time>
      </trkpt>
      <trkpt lat="43.09039" lon="0.27737">
        <ele>353.227801</ele>
        <time>2022-08-09T16:07:42.231Z</time>
      </trkpt>
      <trkpt lat="43.09024" lon="0.27768">
        <ele>353.686952</ele>
        <time>2022-08-09T16:07:48.487Z</time>
      </trkpt>
      <trkpt lat="43.08958" lon="0.27879">
        <ele>355.057789</ele>
        <time>2022-08-09T16:08:11.885Z</time>
      </trkpt>
      <trkpt lat="43.0893" lon="0.27906">
        <ele>355.465805</ele>
        <time>2022-08-09T16:08:18.888Z</time>
      </trkpt>
      <trkpt lat="43.08857" lon="0.27967">
        <ele>356.153051</ele>
        <time>2022-08-09T16:08:33.816Z</time>
      </trkpt>
      <trkpt lat="43.08749" lon="0.28011">
        <ele>355.219713</ele>
        <time>2022-08-09T16:08:48.043Z</time>
      </trkpt>
      <trkpt lat="43.08643" lon="0.28078">
        <ele>354.395494</ele>
        <time>2022-08-09T16:09:01.045Z</time>
      </trkpt>
      <trkpt lat="43.08607" lon="0.28114">
        <ele>354.116807</ele>
        <time>2022-08-09T16:09:06.621Z</time>
      </trkpt>
      <trkpt lat="43.08585" lon="0.28165">
        <ele>353.850441</ele>
        <time>2022-08-09T16:09:13.233Z</time>
      </trkpt>
      <trkpt lat="43.08568" lon="0.28199">
        <ele>353.759115</ele>
        <time>2022-08-09T16:09:18.330Z</time>
      </trkpt>
      <trkpt lat="43.08562" lon="0.28212">
        <ele>353.96538</ele>
        <time>2022-08-09T16:09:20.721Z</time>
      </trkpt>
      <trkpt lat="43.08532" lon="0.28262">
        <ele>354.829904</ele>
        <time>2022-08-09T16:09:30.402Z</time>
      </trkpt>
      <trkpt lat="43.08523" lon="0.28252">
        <ele>355.042671</ele>
        <time>2022-08-09T16:09:32.792Z</time>
      </trkpt>
      <trkpt lat="43.08523" lon="0.28252">
        <ele>355.042671</ele>
        <time>2022-08-09T16:09:32.796Z</time>
      </trkpt>
      <trkpt lat="43.08523" lon="0.28252">
        <ele>355.042671</ele>
        <time>2022-08-09T16:09:32.843Z</time>
      </trkpt>
      <trkpt lat="43.08532" lon="0.28262">
        <ele>355.255438</ele>
        <time>2022-08-09T16:09:36.339Z</time>
      </trkpt>
      <trkpt lat="43.08529" lon="0.28268">
        <ele>355.356287</ele>
        <time>2022-08-09T16:09:37.726Z</time>
      </trkpt>
      <trkpt lat="43.08523" lon="0.28278">
        <ele>355.519959</ele>
        <time>2022-08-09T16:09:39.844Z</time>
      </trkpt>
      <trkpt lat="43.08517" lon="0.28288">
        <ele>355.700982</ele>
        <time>2022-08-09T16:09:41.455Z</time>
      </trkpt>
      <trkpt lat="43.08496" lon="0.28315">
        <ele>356.236244</ele>
        <time>2022-08-09T16:09:48.833Z</time>
      </trkpt>
      <trkpt lat="43.08463" lon="0.28371">
        <ele>357.322959</ele>
        <time>2022-08-09T16:10:02.176Z</time>
      </trkpt>
      <trkpt lat="43.08339" lon="0.28684">
        <ele>365.654217</ele>
        <time>2022-08-09T16:11:12.740Z</time>
      </trkpt>
      <trkpt lat="43.08304" lon="0.28739">
        <ele>367.588118</ele>
        <time>2022-08-09T16:11:28.990Z</time>
      </trkpt>
      <trkpt lat="43.08239" lon="0.28816">
        <ele>371.350921</ele>
        <time>2022-08-09T16:11:56.778Z</time>
      </trkpt>
      <trkpt lat="43.08158" lon="0.28894">
        <ele>376.249838</ele>
        <time>2022-08-09T16:12:32.073Z</time>
      </trkpt>
      <trkpt lat="43.08078" lon="0.28942">
        <ele>379.935763</ele>
        <time>2022-08-09T16:13:03.663Z</time>
      </trkpt>
      <trkpt lat="43.08028" lon="0.2896">
        <ele>381.960002</ele>
        <time>2022-08-09T16:13:21.194Z</time>
      </trkpt>
      <trkpt lat="43.08001" lon="0.28985">
        <ele>383.230521</ele>
        <time>2022-08-09T16:13:30.937Z</time>
      </trkpt>
      <trkpt lat="43.07961" lon="0.29009">
        <ele>384.580082</ele>
        <time>2022-08-09T16:13:40.952Z</time>
      </trkpt>
      <trkpt lat="43.07919" lon="0.28999">
        <ele>383.708934</ele>
        <time>2022-08-09T16:13:47.569Z</time>
      </trkpt>
      <trkpt lat="43.07868" lon="0.29016">
        <ele>382.615836</ele>
        <time>2022-08-09T16:13:53.663Z</time>
      </trkpt>
      <trkpt lat="43.07813" lon="0.29019">
        <ele>381.480334</ele>
        <time>2022-08-09T16:13:58.916Z</time>
      </trkpt>
      <trkpt lat="43.07758" lon="0.29005">
        <ele>379.865746</ele>
        <time>2022-08-09T16:14:04.220Z</time>
      </trkpt>
      <trkpt lat="43.07735" lon="0.28989">
        <ele>378.960954</ele>
        <time>2022-08-09T16:14:06.694Z</time>
      </trkpt>
      <trkpt lat="43.07696" lon="0.28975">
        <ele>377.554815</ele>
        <time>2022-08-09T16:14:10.520Z</time>
      </trkpt>
      <trkpt lat="43.07675" lon="0.28977">
        <ele>376.833682</ele>
        <time>2022-08-09T16:14:12.567Z</time>
      </trkpt>
      <trkpt lat="43.07671" lon="0.28987">
        <ele>376.539831</ele>
        <time>2022-08-09T16:14:13.436Z</time>
      </trkpt>
      <trkpt lat="43.0767" lon="0.29007">
        <ele>376.031944</ele>
        <time>2022-08-09T16:14:14.903Z</time>
      </trkpt>
      <trkpt lat="43.07692" lon="0.29103">
        <ele>375.00227</ele>
        <time>2022-08-09T16:14:23.605Z</time>
      </trkpt>
      <trkpt lat="43.07691" lon="0.29127">
        <ele>375.148686</ele>
        <time>2022-08-09T16:14:25.953Z</time>
      </trkpt>
      <trkpt lat="43.07682" lon="0.29159">
        <ele>375.363508</ele>
        <time>2022-08-09T16:14:31.387Z</time>
      </trkpt>
      <trkpt lat="43.07655" lon="0.29216">
        <ele>375.790045</ele>
        <time>2022-08-09T16:14:43.233Z</time>
      </trkpt>
      <trkpt lat="43.07643" lon="0.29233">
        <ele>375.937628</ele>
        <time>2022-08-09T16:14:47.351Z</time>
      </trkpt>
      <trkpt lat="43.07621" lon="0.29246">
        <ele>376.142323</ele>
        <time>2022-08-09T16:14:52.409Z</time>
      </trkpt>
      <trkpt lat="43.0758" lon="0.29304">
        <ele>377.168177</ele>
        <time>2022-08-09T16:15:04.542Z</time>
      </trkpt>
      <trkpt lat="43.07538" lon="0.29346">
        <ele>378.177269</ele>
        <time>2022-08-09T16:15:14.223Z</time>
      </trkpt>
      <trkpt lat="43.07484" lon="0.2937">
        <ele>379.281171</ele>
        <time>2022-08-09T16:15:29.487Z</time>
      </trkpt>
      <trkpt lat="43.07402" lon="0.29377">
        <ele>381.774315</ele>
        <time>2022-08-09T16:15:48.879Z</time>
      </trkpt>
      <trkpt lat="43.07404" lon="0.29386">
        <ele>382.016313</ele>
        <time>2022-08-09T16:15:50.533Z</time>
      </trkpt>
      <trkpt lat="43.07409" lon="0.29414">
        <ele>382.735878</ele>
        <time>2022-08-09T16:15:56.595Z</time>
      </trkpt>
      <trkpt lat="43.0743" lon="0.29463">
        <ele>384.179235</ele>
        <time>2022-08-09T16:16:07.700Z</time>
      </trkpt>
      <trkpt lat="43.07434" lon="0.29512">
        <ele>385.424305</ele>
        <time>2022-08-09T16:16:19.942Z</time>
      </trkpt>
      <trkpt lat="43.07432" lon="0.29548">
        <ele>386.433983</ele>
        <time>2022-08-09T16:16:29.732Z</time>
      </trkpt>
      <trkpt lat="43.07419" lon="0.29612">
        <ele>388.579504</ele>
        <time>2022-08-09T16:16:47.938Z</time>
      </trkpt>
      <trkpt lat="43.07419" lon="0.2963">
        <ele>389.138133</ele>
        <time>2022-08-09T16:16:52.066Z</time>
      </trkpt>
      <trkpt lat="43.07429" lon="0.2965">
        <ele>389.947225</ele>
        <time>2022-08-09T16:16:57.931Z</time>
      </trkpt>
      <trkpt lat="43.07456" lon="0.29678">
        <ele>391.414185</ele>
        <time>2022-08-09T16:17:07.756Z</time>
      </trkpt>
      <trkpt lat="43.07494" lon="0.2973">
        <ele>393.773368</ele>
        <time>2022-08-09T16:17:23.879Z</time>
      </trkpt>
      <trkpt lat="43.07509" lon="0.29759">
        <ele>394.802775</ele>
        <time>2022-08-09T16:17:31.569Z</time>
      </trkpt>
      <trkpt lat="43.07525" lon="0.29824">
        <ele>396.747321</ele>
        <time>2022-08-09T16:17:47.980Z</time>
      </trkpt>
      <trkpt lat="43.07523" lon="0.29835">
        <ele>397.061327</ele>
        <time>2022-08-09T16:17:50.391Z</time>
      </trkpt>
      <trkpt lat="43.07505" lon="0.2985">
        <ele>397.891938</ele>
        <time>2022-08-09T16:17:57.285Z</time>
      </trkpt>
      <trkpt lat="43.07457" lon="0.29926">
        <ele>400.738266</ele>
        <time>2022-08-09T16:18:18.791Z</time>
      </trkpt>
      <trkpt lat="43.07443" lon="0.30031">
        <ele>403.894741</ele>
        <time>2022-08-09T16:18:40.646Z</time>
      </trkpt>
      <trkpt lat="43.07421" lon="0.30094">
        <ele>405.940996</ele>
        <time>2022-08-09T16:18:56.282Z</time>
      </trkpt>
      <trkpt lat="43.07416" lon="0.30126">
        <ele>406.908302</ele>
        <time>2022-08-09T16:19:04.355Z</time>
      </trkpt>
      <trkpt lat="43.07418" lon="0.3015">
        <ele>407.645383</ele>
        <time>2022-08-09T16:19:10.687Z</time>
      </trkpt>
      <trkpt lat="43.07428" lon="0.30169">
        <ele>408.379433</ele>
        <time>2022-08-09T16:19:16.731Z</time>
      </trkpt>
      <trkpt lat="43.0745" lon="0.3017">
        <ele>409.495514</ele>
        <time>2022-08-09T16:19:24.310Z</time>
      </trkpt>
      <trkpt lat="43.07497" lon="0.30147">
        <ele>412.115751</ele>
        <time>2022-08-09T16:19:41.655Z</time>
      </trkpt>
      <trkpt lat="43.07588" lon="0.30144">
        <ele>416.771787</ele>
        <time>2022-08-09T16:20:14.180Z</time>
      </trkpt>
      <trkpt lat="43.07643" lon="0.30126">
        <ele>419.804954</ele>
        <time>2022-08-09T16:20:35.191Z</time>
      </trkpt>
      <trkpt lat="43.07723" lon="0.30129">
        <ele>424.1157</ele>
        <time>2022-08-09T16:21:04.722Z</time>
      </trkpt>
      <trkpt lat="43.07753" lon="0.30153">
        <ele>425.985463</ele>
        <time>2022-08-09T16:21:17.182Z</time>
      </trkpt>
      <trkpt lat="43.07823" lon="0.30188">
        <ele>429.852827</ele>
        <time>2022-08-09T16:21:43.367Z</time>
      </trkpt>
      <trkpt lat="43.07863" lon="0.30226">
        <ele>432.338916</ele>
        <time>2022-08-09T16:21:59.617Z</time>
      </trkpt>
      <trkpt lat="43.0788" lon="0.30234">
        <ele>433.262109</ele>
        <time>2022-08-09T16:22:05.338Z</time>
      </trkpt>
      <trkpt lat="43.07888" lon="0.30259">
        <ele>434.27177</ele>
        <time>2022-08-09T16:22:11.203Z</time>
      </trkpt>
      <trkpt lat="43.07918" lon="0.30289">
        <ele>436.181767</ele>
        <time>2022-08-09T16:22:23.244Z</time>
      </trkpt>
      <trkpt lat="43.07934" lon="0.30325">
        <ele>439.355817</ele>
        <time>2022-08-09T16:22:35.990Z</time>
      </trkpt>
      <trkpt lat="43.07949" lon="0.30333">
        <ele>441.135341</ele>
        <time>2022-08-09T16:22:44.218Z</time>
      </trkpt>
      <trkpt lat="43.08018" lon="0.30267">
        <ele>450.306215</ele>
        <time>2022-08-09T16:23:35.596Z</time>
      </trkpt>
      <trkpt lat="43.08148" lon="0.30211">
        <ele>468.357268</ele>
        <time>2022-08-09T16:25:13.639Z</time>
      </trkpt>
      <trkpt lat="43.08181" lon="0.30208">
        <ele>473.288894</ele>
        <time>2022-08-09T16:25:42.757Z</time>
      </trkpt>
      <trkpt lat="43.08251" lon="0.30217">
        <ele>483.152578</ele>
        <time>2022-08-09T16:26:37.455Z</time>
      </trkpt>
      <trkpt lat="43.0827" lon="0.30224">
        <ele>484.650643</ele>
        <time>2022-08-09T16:26:50.382Z</time>
      </trkpt>
      <trkpt lat="43.08332" lon="0.30273">
        <ele>490.123117</ele>
        <time>2022-08-09T16:27:23.143Z</time>
      </trkpt>
      <trkpt lat="43.08378" lon="0.30331">
        <ele>494.871228</ele>
        <time>2022-08-09T16:27:45.059Z</time>
      </trkpt>
      <trkpt lat="43.08382" lon="0.3035">
        <ele>495.989932</ele>
        <time>2022-08-09T16:27:50.250Z</time>
      </trkpt>
      <trkpt lat="43.08377" lon="0.30358">
        <ele>496.299225</ele>
        <time>2022-08-09T16:27:52.093Z</time>
      </trkpt>
      <trkpt lat="43.08368" lon="0.30358">
        <ele>496.397907</ele>
        <time>2022-08-09T16:27:54.302Z</time>
      </trkpt>
      <trkpt lat="43.08332" lon="0.30343">
        <ele>496.813123</ele>
        <time>2022-08-09T16:28:02.910Z</time>
      </trkpt>
      <trkpt lat="43.083" lon="0.30348">
        <ele>497.15927</ele>
        <time>2022-08-09T16:28:07.994Z</time>
      </trkpt>
      <trkpt lat="43.08252" lon="0.30367">
        <ele>497.707071</ele>
        <time>2022-08-09T16:28:14.268Z</time>
      </trkpt>
      <trkpt lat="43.08238" lon="0.30383">
        <ele>497.915163</ele>
        <time>2022-08-09T16:28:16.907Z</time>
      </trkpt>
      <trkpt lat="43.08171" lon="0.30495">
        <ele>501.058734</ele>
        <time>2022-08-09T16:28:37.837Z</time>
      </trkpt>
      <trkpt lat="43.08161" lon="0.30517">
        <ele>501.756118</ele>
        <time>2022-08-09T16:28:42.301Z</time>
      </trkpt>
      <trkpt lat="43.08162" lon="0.30536">
        <ele>502.276722</ele>
        <time>2022-08-09T16:28:46.829Z</time>
      </trkpt>
      <trkpt lat="43.08167" lon="0.30546">
        <ele>502.616618</ele>
        <time>2022-08-09T16:28:49.711Z</time>
      </trkpt>
      <trkpt lat="43.08171" lon="0.30547">
        <ele>502.768634</ele>
        <time>2022-08-09T16:28:51.292Z</time>
      </trkpt>
      <trkpt lat="43.08178" lon="0.30548">
        <ele>503.013108</ele>
        <time>2022-08-09T16:28:53.371Z</time>
      </trkpt>
      <trkpt lat="43.08187" lon="0.30541">
        <ele>503.383076</ele>
        <time>2022-08-09T16:28:57.323Z</time>
      </trkpt>
      <trkpt lat="43.08216" lon="0.30495">
        <ele>505.269456</ele>
        <time>2022-08-09T16:29:16.190Z</time>
      </trkpt>
      <trkpt lat="43.0824" lon="0.30476">
        <ele>508.05388</ele>
        <time>2022-08-09T16:29:29.414Z</time>
      </trkpt>
      <trkpt lat="43.08265" lon="0.30467">
        <ele>510.669987</ele>
        <time>2022-08-09T16:29:43.079Z</time>
      </trkpt>
      <trkpt lat="43.08295" lon="0.30469">
        <ele>513.708847</ele>
        <time>2022-08-09T16:30:01.408Z</time>
      </trkpt>
      <trkpt lat="43.08464" lon="0.30552">
        <ele>531.792154</ele>
        <time>2022-08-09T16:31:46.936Z</time>
      </trkpt>
      <trkpt lat="43.085" lon="0.30562">
        <ele>535.554782</ele>
        <time>2022-08-09T16:32:07.542Z</time>
      </trkpt>
      <trkpt lat="43.08526" lon="0.30558">
        <ele>538.214926</ele>
        <time>2022-08-09T16:32:21.658Z</time>
      </trkpt>
      <trkpt lat="43.0855" lon="0.30508">
        <ele>542.296661</ele>
        <time>2022-08-09T16:32:43.457Z</time>
      </trkpt>
      <trkpt lat="43.08575" lon="0.305">
        <ele>544.24363</ele>
        <time>2022-08-09T16:32:56.131Z</time>
      </trkpt>
      <trkpt lat="43.08589" lon="0.30504">
        <ele>545.384886</ele>
        <time>2022-08-09T16:33:02.961Z</time>
      </trkpt>
      <trkpt lat="43.08699" lon="0.30561">
        <ele>554.425967</ele>
        <time>2022-08-09T16:33:55.262Z</time>
      </trkpt>
      <trkpt lat="43.08708" lon="0.30572">
        <ele>555.173465</ele>
        <time>2022-08-09T16:34:01.442Z</time>
      </trkpt>
      <trkpt lat="43.08715" lon="0.30589">
        <ele>555.672198</ele>
        <time>2022-08-09T16:34:07.092Z</time>
      </trkpt>
      <trkpt lat="43.08716" lon="0.30671">
        <ele>557.824833</ele>
        <time>2022-08-09T16:34:28.619Z</time>
      </trkpt>
      <trkpt lat="43.08711" lon="0.30682">
        <ele>558.172022</ele>
        <time>2022-08-09T16:34:31.412Z</time>
      </trkpt>
      <trkpt lat="43.08705" lon="0.30691">
        <ele>558.500187</ele>
        <time>2022-08-09T16:34:33.664Z</time>
      </trkpt>
      <trkpt lat="43.08686" lon="0.30698">
        <ele>559.215044</ele>
        <time>2022-08-09T16:34:39.985Z</time>
      </trkpt>
      <trkpt lat="43.08679" lon="0.30698">
        <ele>559.445655</ele>
        <time>2022-08-09T16:34:41.404Z</time>
      </trkpt>
      <trkpt lat="43.08645" lon="0.30699">
        <ele>560.673019</ele>
        <time>2022-08-09T16:34:48.918Z</time>
      </trkpt>
      <trkpt lat="43.08631" lon="0.30705">
        <ele>561.209473</ele>
        <time>2022-08-09T16:34:51.023Z</time>
      </trkpt>
      <trkpt lat="43.08611" lon="0.30737">
        <ele>561.030905</ele>
        <time>2022-08-09T16:34:55.072Z</time>
      </trkpt>
      <trkpt lat="43.08584" lon="0.3082">
        <ele>559.802985</ele>
        <time>2022-08-09T16:35:02.893Z</time>
      </trkpt>
      <trkpt lat="43.08582" lon="0.30842">
        <ele>559.505026</ele>
        <time>2022-08-09T16:35:04.553Z</time>
      </trkpt>
      <trkpt lat="43.08613" lon="0.30897">
        <ele>558.566706</ele>
        <time>2022-08-09T16:35:09.694Z</time>
      </trkpt>
      <trkpt lat="43.08652" lon="0.3093">
        <ele>557.574276</ele>
        <time>2022-08-09T16:35:14.386Z</time>
      </trkpt>
      <trkpt lat="43.08685" lon="0.30965">
        <ele>556.560696</ele>
        <time>2022-08-09T16:35:18.547Z</time>
      </trkpt>
      <trkpt lat="43.08711" lon="0.30997">
        <ele>555.70537</ele>
        <time>2022-08-09T16:35:22.043Z</time>
      </trkpt>
      <trkpt lat="43.08737" lon="0.3103">
        <ele>554.82764</ele>
        <time>2022-08-09T16:35:25.717Z</time>
      </trkpt>
      <trkpt lat="43.08739" lon="0.31033">
        <ele>554.759457</ele>
        <time>2022-08-09T16:35:26.016Z</time>
      </trkpt>
      <trkpt lat="43.08812" lon="0.31208">
        <ele>554.659835</ele>
        <time>2022-08-09T16:35:45.390Z</time>
      </trkpt>
      <trkpt lat="43.08827" lon="0.31291">
        <ele>555.217759</ele>
        <time>2022-08-09T16:35:59.627Z</time>
      </trkpt>
      <trkpt lat="43.08835" lon="0.31372">
        <ele>558.34147</ele>
        <time>2022-08-09T16:36:18.193Z</time>
      </trkpt>
      <trkpt lat="43.08827" lon="0.31547">
        <ele>566.551591</ele>
        <time>2022-08-09T16:37:16.383Z</time>
      </trkpt>
      <trkpt lat="43.08829" lon="0.31595">
        <ele>569.233211</ele>
        <time>2022-08-09T16:37:32.459Z</time>
      </trkpt>
      <trkpt lat="43.08841" lon="0.31691">
        <ele>574.706957</ele>
        <time>2022-08-09T16:38:04.754Z</time>
      </trkpt>
      <trkpt lat="43.08818" lon="0.31819">
        <ele>582.083192</ele>
        <time>2022-08-09T16:38:49.663Z</time>
      </trkpt>
      <trkpt lat="43.08819" lon="0.32034">
        <ele>593.714078</ele>
        <time>2022-08-09T16:39:58.562Z</time>
      </trkpt>
      <trkpt lat="43.08827" lon="0.32347">
        <ele>608.961554</ele>
        <time>2022-08-09T16:41:39.867Z</time>
      </trkpt>
      <trkpt lat="43.08822" lon="0.32424">
        <ele>611.330148</ele>
        <time>2022-08-09T16:41:58.275Z</time>
      </trkpt>
      <trkpt lat="43.08787" lon="0.32597">
        <ele>615.679528</ele>
        <time>2022-08-09T16:42:29.251Z</time>
      </trkpt>
      <trkpt lat="43.0878" lon="0.32682">
        <ele>616.843438</ele>
        <time>2022-08-09T16:42:41.455Z</time>
      </trkpt>
      <trkpt lat="43.08789" lon="0.32832">
        <ele>619.468819</ele>
        <time>2022-08-09T16:43:06.760Z</time>
      </trkpt>
      <trkpt lat="43.08765" lon="0.33129">
        <ele>627.045486</ele>
        <time>2022-08-09T16:44:10.402Z</time>
      </trkpt>
      <trkpt lat="43.08761" lon="0.33195">
        <ele>628.967939</ele>
        <time>2022-08-09T16:44:25.672Z</time>
      </trkpt>
      <trkpt lat="43.08761" lon="0.33221">
        <ele>629.718915</ele>
        <time>2022-08-09T16:44:31.882Z</time>
      </trkpt>
      <trkpt lat="43.08759" lon="0.33426">
        <ele>635.814869</ele>
        <time>2022-08-09T16:45:20.619Z</time>
      </trkpt>
      <trkpt lat="43.08754" lon="0.3349">
        <ele>637.750401</ele>
        <time>2022-08-09T16:45:35.201Z</time>
      </trkpt>
      <trkpt lat="43.0875" lon="0.33608">
        <ele>639.952567</ele>
        <time>2022-08-09T16:45:57.857Z</time>
      </trkpt>
      <trkpt lat="43.08753" lon="0.33644">
        <ele>640.575954</ele>
        <time>2022-08-09T16:46:04.042Z</time>
      </trkpt>
      <trkpt lat="43.08779" lon="0.33789">
        <ele>642.924159</ele>
        <time>2022-08-09T16:46:27.199Z</time>
      </trkpt>
      <trkpt lat="43.08748" lon="0.33841">
        <ele>643.790156</ele>
        <time>2022-08-09T16:46:37.963Z</time>
      </trkpt>
      <trkpt lat="43.08664" lon="0.3401">
        <ele>646.190183</ele>
        <time>2022-08-09T16:47:11.073Z</time>
      </trkpt>
      <trkpt lat="43.08502" lon="0.34367">
        <ele>649.748567</ele>
        <time>2022-08-09T16:48:09.992Z</time>
      </trkpt>
      <trkpt lat="43.08332" lon="0.34743">
        <ele>652.977329</ele>
        <time>2022-08-09T16:49:08.979Z</time>
      </trkpt>
      <trkpt lat="43.08215" lon="0.35003">
        <ele>656.809869</ele>
        <time>2022-08-09T16:49:58.819Z</time>
      </trkpt>
      <trkpt lat="43.08091" lon="0.35281">
        <ele>660.293891</ele>
        <time>2022-08-09T16:50:52.434Z</time>
      </trkpt>
      <trkpt lat="43.08055" lon="0.3536">
        <ele>660.404747</ele>
        <time>2022-08-09T16:51:02.377Z</time>
      </trkpt>
      <trkpt lat="43.08034" lon="0.35424">
        <ele>660.487738</ele>
        <time>2022-08-09T16:51:08.541Z</time>
      </trkpt>
      <trkpt lat="43.08025" lon="0.35479">
        <ele>659.612669</ele>
        <time>2022-08-09T16:51:13.086Z</time>
      </trkpt>
      <trkpt lat="43.08019" lon="0.35725">
        <ele>655.478829</ele>
        <time>2022-08-09T16:51:32.110Z</time>
      </trkpt>
      <trkpt lat="43.08017" lon="0.35787">
        <ele>654.309216</ele>
        <time>2022-08-09T16:51:36.972Z</time>
      </trkpt>
      <trkpt lat="43.08021" lon="0.35827">
        <ele>653.55782</ele>
        <time>2022-08-09T16:51:40.019Z</time>
      </trkpt>
      <trkpt lat="43.08032" lon="0.35863">
        <ele>652.83087</ele>
        <time>2022-08-09T16:51:42.982Z</time>
      </trkpt>
      <trkpt lat="43.08071" lon="0.35936">
        <ele>651.012702</ele>
        <time>2022-08-09T16:51:49.944Z</time>
      </trkpt>
      <trkpt lat="43.08079" lon="0.35977">
        <ele>650.092954</ele>
        <time>2022-08-09T16:51:53.218Z</time>
      </trkpt>
      <trkpt lat="43.08078" lon="0.36005">
        <ele>649.494554</ele>
        <time>2022-08-09T16:51:55.295Z</time>
      </trkpt>
      <trkpt lat="43.0807" lon="0.36036">
        <ele>648.773934</ele>
        <time>2022-08-09T16:51:57.812Z</time>
      </trkpt>
      <trkpt lat="43.08057" lon="0.36065">
        <ele>648.023724</ele>
        <time>2022-08-09T16:52:00.447Z</time>
      </trkpt>
      <trkpt lat="43.08035" lon="0.36096">
        <ele>647.098514</ele>
        <time>2022-08-09T16:52:03.652Z</time>
      </trkpt>
      <trkpt lat="43.08021" lon="0.36135">
        <ele>645.979118</ele>
        <time>2022-08-09T16:52:06.795Z</time>
      </trkpt>
      <trkpt lat="43.0802" lon="0.36141">
        <ele>645.783675</ele>
        <time>2022-08-09T16:52:07.247Z</time>
      </trkpt>
      <trkpt lat="43.08019" lon="0.36148">
        <ele>645.580409</ele>
        <time>2022-08-09T16:52:07.710Z</time>
      </trkpt>
      <trkpt lat="43.08018" lon="0.36192">
        <ele>644.214172</ele>
        <time>2022-08-09T16:52:10.790Z</time>
      </trkpt>
      <trkpt lat="43.08023" lon="0.36223">
        <ele>643.217137</ele>
        <time>2022-08-09T16:52:13.025Z</time>
      </trkpt>
      <trkpt lat="43.08028" lon="0.36269">
        <ele>641.790342</ele>
        <time>2022-08-09T16:52:16.273Z</time>
      </trkpt>
      <trkpt lat="43.08023" lon="0.36281">
        <ele>641.33182</ele>
        <time>2022-08-09T16:52:17.358Z</time>
      </trkpt>
      <trkpt lat="43.08024" lon="0.36304">
        <ele>640.640865</ele>
        <time>2022-08-09T16:52:18.934Z</time>
      </trkpt>
      <trkpt lat="43.08032" lon="0.36317">
        <ele>640.104352</ele>
        <time>2022-08-09T16:52:20.144Z</time>
      </trkpt>
      <trkpt lat="43.08039" lon="0.36358">
        <ele>638.789907</ele>
        <time>2022-08-09T16:52:23.091Z</time>
      </trkpt>
      <trkpt lat="43.08046" lon="0.3643">
        <ele>636.305377</ele>
        <time>2022-08-09T16:52:28.217Z</time>
      </trkpt>
      <trkpt lat="43.08058" lon="0.36471">
        <ele>634.818407</ele>
        <time>2022-08-09T16:52:31.285Z</time>
      </trkpt>
      <trkpt lat="43.0808" lon="0.36516">
        <ele>632.991636</ele>
        <time>2022-08-09T16:52:35.043Z</time>
      </trkpt>
      <trkpt lat="43.08197" lon="0.36709">
        <ele>623.18976</ele>
        <time>2022-08-09T16:52:52.258Z</time>
      </trkpt>
      <trkpt lat="43.08217" lon="0.3677">
        <ele>620.408087</ele>
        <time>2022-08-09T16:52:56.738Z</time>
      </trkpt>
      <trkpt lat="43.08224" lon="0.36804">
        <ele>618.908756</ele>
        <time>2022-08-09T16:52:58.997Z</time>
      </trkpt>
      <trkpt lat="43.08228" lon="0.36828">
        <ele>617.871648</ele>
        <time>2022-08-09T16:53:00.616Z</time>
      </trkpt>
      <trkpt lat="43.08231" lon="0.36857">
        <ele>616.601562</ele>
        <time>2022-08-09T16:53:02.543Z</time>
      </trkpt>
      <trkpt lat="43.08232" lon="0.36864">
        <ele>616.311846</ele>
        <time>2022-08-09T16:53:03.008Z</time>
      </trkpt>
      <trkpt lat="43.08261" lon="0.37067">
        <ele>608.436169</ele>
        <time>2022-08-09T16:53:17.045Z</time>
      </trkpt>
      <trkpt lat="43.08285" lon="0.37176">
        <ele>605.599454</ele>
        <time>2022-08-09T16:53:25.710Z</time>
      </trkpt>
      <trkpt lat="43.08288" lon="0.37218">
        <ele>604.544826</ele>
        <time>2022-08-09T16:53:28.960Z</time>
      </trkpt>
      <trkpt lat="43.08283" lon="0.37226">
        <ele>604.270486</ele>
        <time>2022-08-09T16:53:29.816Z</time>
      </trkpt>
      <trkpt lat="43.08281" lon="0.37246">
        <ele>603.766079</ele>
        <time>2022-08-09T16:53:31.396Z</time>
      </trkpt>
      <trkpt lat="43.0827" lon="0.37273">
        <ele>602.903045</ele>
        <time>2022-08-09T16:53:33.833Z</time>
      </trkpt>
      <trkpt lat="43.08264" lon="0.37286">
        <ele>602.478592</ele>
        <time>2022-08-09T16:53:35.012Z</time>
      </trkpt>
      <trkpt lat="43.08258" lon="0.3736">
        <ele>600.369914</ele>
        <time>2022-08-09T16:53:40.580Z</time>
      </trkpt>
      <trkpt lat="43.0824" lon="0.37462">
        <ele>597.440367</ele>
        <time>2022-08-09T16:53:47.820Z</time>
      </trkpt>
      <trkpt lat="43.08229" lon="0.37514">
        <ele>595.740734</ele>
        <time>2022-08-09T16:53:51.589Z</time>
      </trkpt>
      <trkpt lat="43.08213" lon="0.3755">
        <ele>594.356036</ele>
        <time>2022-08-09T16:53:54.464Z</time>
      </trkpt>
      <trkpt lat="43.0821" lon="0.37555">
        <ele>594.160669</ele>
        <time>2022-08-09T16:53:54.888Z</time>
      </trkpt>
      <trkpt lat="43.08187" lon="0.37591">
        <ele>592.589762</ele>
        <time>2022-08-09T16:53:58.187Z</time>
      </trkpt>
      <trkpt lat="43.0817" lon="0.37619">
        <ele>591.356335</ele>
        <time>2022-08-09T16:54:00.774Z</time>
      </trkpt>
      <trkpt lat="43.08128" lon="0.37687">
        <ele>588.521717</ele>
        <time>2022-08-09T16:54:07.055Z</time>
      </trkpt>
      <trkpt lat="43.08115" lon="0.37707">
        <ele>588.065857</ele>
        <time>2022-08-09T16:54:08.956Z</time>
      </trkpt>
      <trkpt lat="43.08036" lon="0.37835">
        <ele>585.13425</ele>
        <time>2022-08-09T16:54:22.166Z</time>
      </trkpt>
      <trkpt lat="43.07962" lon="0.37953">
        <ele>583.209743</ele>
        <time>2022-08-09T16:54:35.447Z</time>
      </trkpt>
      <trkpt lat="43.0794" lon="0.3799">
        <ele>582.71499</ele>
        <time>2022-08-09T16:54:39.537Z</time>
      </trkpt>
      <trkpt lat="43.07911" lon="0.38057">
        <ele>581.920941</ele>
        <time>2022-08-09T16:54:46.065Z</time>
      </trkpt>
      <trkpt lat="43.07903" lon="0.38056">
        <ele>581.80758</ele>
        <time>2022-08-09T16:54:47.074Z</time>
      </trkpt>
      <trkpt lat="43.07897" lon="0.38063">
        <ele>581.73122</ele>
        <time>2022-08-09T16:54:48.068Z</time>
      </trkpt>
      <trkpt lat="43.079" lon="0.38082">
        <ele>581.606217</ele>
        <time>2022-08-09T16:54:49.679Z</time>
      </trkpt>
      <trkpt lat="43.07907" lon="0.38084">
        <ele>581.537369</ele>
        <time>2022-08-09T16:54:50.614Z</time>
      </trkpt>
      <trkpt lat="43.07916" lon="0.38075">
        <ele>581.43685</ele>
        <time>2022-08-09T16:54:51.981Z</time>
      </trkpt>
      <trkpt lat="43.07938" lon="0.38092">
        <ele>581.205128</ele>
        <time>2022-08-09T16:54:55.095Z</time>
      </trkpt>
      <trkpt lat="43.07967" lon="0.38115">
        <ele>580.909072</ele>
        <time>2022-08-09T16:54:59.228Z</time>
      </trkpt>
      <trkpt lat="43.07992" lon="0.38135">
        <ele>580.644071</ele>
        <time>2022-08-09T16:55:02.916Z</time>
      </trkpt>
      <trkpt lat="43.08017" lon="0.38155">
        <ele>580.37874</ele>
        <time>2022-08-09T16:55:06.728Z</time>
      </trkpt>
      <trkpt lat="43.08028" lon="0.38167">
        <ele>580.255033</ele>
        <time>2022-08-09T16:55:08.526Z</time>
      </trkpt>
      <trkpt lat="43.08072" lon="0.3825">
        <ele>579.740279</ele>
        <time>2022-08-09T16:55:18.362Z</time>
      </trkpt>
      <trkpt lat="43.08093" lon="0.38297">
        <ele>579.470887</ele>
        <time>2022-08-09T16:55:23.517Z</time>
      </trkpt>
      <trkpt lat="43.08108" lon="0.38335">
        <ele>579.263874</ele>
        <time>2022-08-09T16:55:27.480Z</time>
      </trkpt>
      <trkpt lat="43.08112" lon="0.38347">
        <ele>579.201242</ele>
        <time>2022-08-09T16:55:28.702Z</time>
      </trkpt>
      <trkpt lat="43.08135" lon="0.38392">
        <ele>578.941004</ele>
        <time>2022-08-09T16:55:33.765Z</time>
      </trkpt>
      <trkpt lat="43.08132" lon="0.38405">
        <ele>578.883302</ele>
        <time>2022-08-09T16:55:34.984Z</time>
      </trkpt>
      <trkpt lat="43.08143" lon="0.38583">
        <ele>578.14877</ele>
        <time>2022-08-09T16:55:51.885Z</time>
      </trkpt>
      <trkpt lat="43.08148" lon="0.38691">
        <ele>577.846667</ele>
        <time>2022-08-09T16:56:02.952Z</time>
      </trkpt>
      <trkpt lat="43.0815" lon="0.38768">
        <ele>577.693318</ele>
        <time>2022-08-09T16:56:11.878Z</time>
      </trkpt>
      <trkpt lat="43.08153" lon="0.38882">
        <ele>577.367929</ele>
        <time>2022-08-09T16:56:23.189Z</time>
      </trkpt>
      <trkpt lat="43.08149" lon="0.38911">
        <ele>577.062342</ele>
        <time>2022-08-09T16:56:25.833Z</time>
      </trkpt>
      <trkpt lat="43.08139" lon="0.38942">
        <ele>576.713313</ele>
        <time>2022-08-09T16:56:28.757Z</time>
      </trkpt>
      <trkpt lat="43.08129" lon="0.38958">
        <ele>576.496378</ele>
        <time>2022-08-09T16:56:30.604Z</time>
      </trkpt>
      <trkpt lat="43.08136" lon="0.38981">
        <ele>576.243788</ele>
        <time>2022-08-09T16:56:33.520Z</time>
      </trkpt>
      <trkpt lat="43.08139" lon="0.3906">
        <ele>575.422991</ele>
        <time>2022-08-09T16:56:43.032Z</time>
      </trkpt>
      <trkpt lat="43.08139" lon="0.39063">
        <ele>575.395171</ele>
        <time>2022-08-09T16:56:43.339Z</time>
      </trkpt>
      <trkpt lat="43.08136" lon="0.39116">
        <ele>574.825749</ele>
        <time>2022-08-09T16:56:49.477Z</time>
      </trkpt>
      <trkpt lat="43.08148" lon="0.39219">
        <ele>573.515225</ele>
        <time>2022-08-09T16:57:01.306Z</time>
      </trkpt>
      <trkpt lat="43.0817" lon="0.39331">
        <ele>572.065123</ele>
        <time>2022-08-09T16:57:15.152Z</time>
      </trkpt>
      <trkpt lat="43.08178" lon="0.39379">
        <ele>571.631392</ele>
        <time>2022-08-09T16:57:21.355Z</time>
      </trkpt>
      <trkpt lat="43.08198" lon="0.39665">
        <ele>569.731466</ele>
        <time>2022-08-09T16:57:58.218Z</time>
      </trkpt>
      <trkpt lat="43.08197" lon="0.39764">
        <ele>569.232278</ele>
        <time>2022-08-09T16:58:11.440Z</time>
      </trkpt>
      <trkpt lat="43.08187" lon="0.39915">
        <ele>568.47201</ele>
        <time>2022-08-09T16:58:31.699Z</time>
      </trkpt>
      <trkpt lat="43.08191" lon="0.39993">
        <ele>568.079728</ele>
        <time>2022-08-09T16:58:42.310Z</time>
      </trkpt>
      <trkpt lat="43.08213" lon="0.40142">
        <ele>567.17898</ele>
        <time>2022-08-09T16:59:01.712Z</time>
      </trkpt>
      <trkpt lat="43.08232" lon="0.40198">
        <ele>566.745237</ele>
        <time>2022-08-09T16:59:09.342Z</time>
      </trkpt>
      <trkpt lat="43.08242" lon="0.4028">
        <ele>566.158704</ele>
        <time>2022-08-09T16:59:20.032Z</time>
      </trkpt>
      <trkpt lat="43.08246" lon="0.40337">
        <ele>565.815526</ele>
        <time>2022-08-09T16:59:27.523Z</time>
      </trkpt>
      <trkpt lat="43.08239" lon="0.40376">
        <ele>565.657504</ele>
        <time>2022-08-09T16:59:32.640Z</time>
      </trkpt>
      <trkpt lat="43.08238" lon="0.40378">
        <ele>565.647099</ele>
        <time>2022-08-09T16:59:32.971Z</time>
      </trkpt>
      <trkpt lat="43.08245" lon="0.40376">
        <ele>565.606555</ele>
        <time>2022-08-09T16:59:34.049Z</time>
      </trkpt>
      <trkpt lat="43.08247" lon="0.40375">
        <ele>565.59645</ele>
        <time>2022-08-09T16:59:34.313Z</time>
      </trkpt>
      <trkpt lat="43.08286" lon="0.40362">
        <ele>565.377302</ele>
        <time>2022-08-09T16:59:39.341Z</time>
      </trkpt>
      <trkpt lat="43.08338" lon="0.40347">
        <ele>565.089706</ele>
        <time>2022-08-09T16:59:46.392Z</time>
      </trkpt>
      <trkpt lat="43.08376" lon="0.40348">
        <ele>564.903342</ele>
        <time>2022-08-09T16:59:51.874Z</time>
      </trkpt>
      <trkpt lat="43.0839" lon="0.40359">
        <ele>564.861386</ele>
        <time>2022-08-09T16:59:54.443Z</time>
      </trkpt>
      <trkpt lat="43.08428" lon="0.40421">
        <ele>564.700975</ele>
        <time>2022-08-09T17:00:03.090Z</time>
      </trkpt>
      <trkpt lat="43.08515" lon="0.40583">
        <ele>564.222091</ele>
        <time>2022-08-09T17:00:22.738Z</time>
      </trkpt>
      <trkpt lat="43.08577" lon="0.40696">
        <ele>563.767974</ele>
        <time>2022-08-09T17:00:36.884Z</time>
      </trkpt>
      <trkpt lat="43.08699" lon="0.40908">
        <ele>562.873918</ele>
        <time>2022-08-09T17:01:02.946Z</time>
      </trkpt>
      <trkpt lat="43.08652" lon="0.40928">
        <ele>562.702009</ele>
        <time>2022-08-09T17:01:12.176Z</time>
      </trkpt>
      <trkpt lat="43.08637" lon="0.40934">
        <ele>562.653626</ele>
        <time>2022-08-09T17:01:15.180Z</time>
      </trkpt>
      <trkpt lat="43.08625" lon="0.40938">
        <ele>562.613375</ele>
        <time>2022-08-09T17:01:17.610Z</time>
      </trkpt>
      <trkpt lat="43.08591" lon="0.40953">
        <ele>562.496517</ele>
        <time>2022-08-09T17:01:24.672Z</time>
      </trkpt>
      <trkpt lat="43.08582" lon="0.40956">
        <ele>562.468669</ele>
        <time>2022-08-09T17:01:26.283Z</time>
      </trkpt>
      <trkpt lat="43.08471" lon="0.41002">
        <ele>562.000913</ele>
        <time>2022-08-09T17:01:48.572Z</time>
      </trkpt>
      <trkpt lat="43.08328" lon="0.41061">
        <ele>561.223992</ele>
        <time>2022-08-09T17:02:15.698Z</time>
      </trkpt>
      <trkpt lat="43.08317" lon="0.41066">
        <ele>561.159095</ele>
        <time>2022-08-09T17:02:17.810Z</time>
      </trkpt>
      <trkpt lat="43.08236" lon="0.41102">
        <ele>560.682057</ele>
        <time>2022-08-09T17:02:33.285Z</time>
      </trkpt>
      <trkpt lat="43.08226" lon="0.41199">
        <ele>560.2945</ele>
        <time>2022-08-09T17:02:42.682Z</time>
      </trkpt>
      <trkpt lat="43.08214" lon="0.41289">
        <ele>560.059211</ele>
        <time>2022-08-09T17:02:52.114Z</time>
      </trkpt>
      <trkpt lat="43.08197" lon="0.41405">
        <ele>559.754851</ele>
        <time>2022-08-09T17:03:04.355Z</time>
      </trkpt>
      <trkpt lat="43.08183" lon="0.41498">
        <ele>559.304365</ele>
        <time>2022-08-09T17:03:13.264Z</time>
      </trkpt>
      <trkpt lat="43.08178" lon="0.41533">
        <ele>559.105424</ele>
        <time>2022-08-09T17:03:16.515Z</time>
      </trkpt>
      <trkpt lat="43.08168" lon="0.4159">
        <ele>558.769811</ele>
        <time>2022-08-09T17:03:21.937Z</time>
      </trkpt>
      <trkpt lat="43.08163" lon="0.4162">
        <ele>558.597145</ele>
        <time>2022-08-09T17:03:24.657Z</time>
      </trkpt>
      <trkpt lat="43.08162" lon="0.41628">
        <ele>558.548746</ele>
        <time>2022-08-09T17:03:25.419Z</time>
      </trkpt>
      <trkpt lat="43.08142" lon="0.41746">
        <ele>557.533776</ele>
        <time>2022-08-09T17:03:36.262Z</time>
      </trkpt>
      <trkpt lat="43.0814" lon="0.41756">
        <ele>557.428278</ele>
        <time>2022-08-09T17:03:37.176Z</time>
      </trkpt>
      <trkpt lat="43.08119" lon="0.41884">
        <ele>556.098079</ele>
        <time>2022-08-09T17:03:48.409Z</time>
      </trkpt>
      <trkpt lat="43.08102" lon="0.41984">
        <ele>554.776705</ele>
        <time>2022-08-09T17:03:56.482Z</time>
      </trkpt>
      <trkpt lat="43.08069" lon="0.42186">
        <ele>551.948041</ele>
        <time>2022-08-09T17:04:13.217Z</time>
      </trkpt>
      <trkpt lat="43.08038" lon="0.42364">
        <ele>549.897849</ele>
        <time>2022-08-09T17:04:28.715Z</time>
      </trkpt>
      <trkpt lat="43.08022" lon="0.42426">
        <ele>548.623573</ele>
        <time>2022-08-09T17:04:34.534Z</time>
      </trkpt>
      <trkpt lat="43.07992" lon="0.42455">
        <ele>547.280168</ele>
        <time>2022-08-09T17:04:38.512Z</time>
      </trkpt>
      <trkpt lat="43.07929" lon="0.425">
        <ele>544.675682</ele>
        <time>2022-08-09T17:04:45.549Z</time>
      </trkpt>
      <trkpt lat="43.07895" lon="0.42534">
        <ele>543.126959</ele>
        <time>2022-08-09T17:04:49.463Z</time>
      </trkpt>
      <trkpt lat="43.0785" lon="0.42599">
        <ele>539.022279</ele>
        <time>2022-08-09T17:04:55.362Z</time>
      </trkpt>
      <trkpt lat="43.07814" lon="0.42679">
        <ele>534.551303</ele>
        <time>2022-08-09T17:05:01.546Z</time>
      </trkpt>
      <trkpt lat="43.07802" lon="0.42729">
        <ele>532.058166</ele>
        <time>2022-08-09T17:05:05.002Z</time>
      </trkpt>
      <trkpt lat="43.07802" lon="0.42873">
        <ele>526.763676</ele>
        <time>2022-08-09T17:05:14.705Z</time>
      </trkpt>
      <trkpt lat="43.07788" lon="0.42961">
        <ele>523.559215</ele>
        <time>2022-08-09T17:05:21.183Z</time>
      </trkpt>
      <trkpt lat="43.07734" lon="0.43109">
        <ele>518.801499</ele>
        <time>2022-08-09T17:05:33.444Z</time>
      </trkpt>
      <trkpt lat="43.07689" lon="0.43183">
        <ele>516.148577</ele>
        <time>2022-08-09T17:05:40.349Z</time>
      </trkpt>
      <trkpt lat="43.07671" lon="0.43222">
        <ele>514.544827</ele>
        <time>2022-08-09T17:05:43.515Z</time>
      </trkpt>
      <trkpt lat="43.07635" lon="0.4344">
        <ele>506.002634</ele>
        <time>2022-08-09T17:05:58.659Z</time>
      </trkpt>
      <trkpt lat="43.0763" lon="0.43468">
        <ele>505.088088</ele>
        <time>2022-08-09T17:06:00.658Z</time>
      </trkpt>
      <trkpt lat="43.07615" lon="0.43529">
        <ele>503.083723</ele>
        <time>2022-08-09T17:06:05.079Z</time>
      </trkpt>
      <trkpt lat="43.07593" lon="0.43625">
        <ele>499.926739</ele>
        <time>2022-08-09T17:06:12.247Z</time>
      </trkpt>
      <trkpt lat="43.07581" lon="0.43684">
        <ele>498.298861</ele>
        <time>2022-08-09T17:06:16.811Z</time>
      </trkpt>
      <trkpt lat="43.07576" lon="0.43707">
        <ele>497.920195</ele>
        <time>2022-08-09T17:06:18.634Z</time>
      </trkpt>
      <trkpt lat="43.07576" lon="0.43707">
        <ele>497.920195</ele>
        <time>2022-08-09T17:06:18.655Z</time>
      </trkpt>
      <trkpt lat="43.07576" lon="0.43707">
        <ele>497.920195</ele>
        <time>2022-08-09T17:06:18.657Z</time>
      </trkpt>
      <trkpt lat="43.0757" lon="0.43733">
        <ele>497.484928</ele>
        <time>2022-08-09T17:06:20.839Z</time>
      </trkpt>
      <trkpt lat="43.07569" lon="0.43741">
        <ele>497.355383</ele>
        <time>2022-08-09T17:06:21.507Z</time>
      </trkpt>
      <trkpt lat="43.07549" lon="0.43844">
        <ele>495.652425</ele>
        <time>2022-08-09T17:06:30.096Z</time>
      </trkpt>
      <trkpt lat="43.07494" lon="0.43959">
        <ele>493.785993</ele>
        <time>2022-08-09T17:06:41.223Z</time>
      </trkpt>
      <trkpt lat="43.07467" lon="0.44001">
        <ele>493.139501</ele>
        <time>2022-08-09T17:06:45.973Z</time>
      </trkpt>
      <trkpt lat="43.07452" lon="0.44022">
        <ele>492.801132</ele>
        <time>2022-08-09T17:06:48.487Z</time>
      </trkpt>
      <trkpt lat="43.07447" lon="0.44017">
        <ele>492.697767</ele>
        <time>2022-08-09T17:06:49.652Z</time>
      </trkpt>
      <trkpt lat="43.07427" lon="0.44022">
        <ele>492.386908</ele>
        <time>2022-08-09T17:06:52.922Z</time>
      </trkpt>
      <trkpt lat="43.07385" lon="0.44021">
        <ele>491.730664</ele>
        <time>2022-08-09T17:06:59.852Z</time>
      </trkpt>
      <trkpt lat="43.07305" lon="0.44005">
        <ele>490.594504</ele>
        <time>2022-08-09T17:07:12.978Z</time>
      </trkpt>
      <trkpt lat="43.07293" lon="0.44004">
        <ele>490.415612</ele>
        <time>2022-08-09T17:07:15.082Z</time>
      </trkpt>
      <trkpt lat="43.07282" lon="0.44005">
        <ele>490.273501</ele>
        <time>2022-08-09T17:07:16.693Z</time>
      </trkpt>
      <trkpt lat="43.07134" lon="0.44065">
        <ele>488.681359</ele>
        <time>2022-08-09T17:07:43.036Z</time>
      </trkpt>
      <trkpt lat="43.07101" lon="0.44078">
        <ele>488.429466</ele>
        <time>2022-08-09T17:07:49.296Z</time>
      </trkpt>
      <trkpt lat="43.07065" lon="0.44096">
        <ele>488.15624</ele>
        <time>2022-08-09T17:07:56.378Z</time>
      </trkpt>
      <trkpt lat="43.07026" lon="0.44127">
        <ele>488.05152</ele>
        <time>2022-08-09T17:08:05.574Z</time>
      </trkpt>
      <trkpt lat="43.0697" lon="0.44188">
        <ele>488.228882</ele>
        <time>2022-08-09T17:08:21.589Z</time>
      </trkpt>
      <trkpt lat="43.06943" lon="0.44214">
        <ele>488.312393</ele>
        <time>2022-08-09T17:08:28.841Z</time>
      </trkpt>
      <trkpt lat="43.06903" lon="0.44199">
        <ele>488.415209</ele>
        <time>2022-08-09T17:08:37.470Z</time>
      </trkpt>
      <trkpt lat="43.06894" lon="0.44201">
        <ele>488.43819</ele>
        <time>2022-08-09T17:08:39.469Z</time>
      </trkpt>
      <trkpt lat="43.06885" lon="0.44212">
        <ele>488.448259</ele>
        <time>2022-08-09T17:08:41.971Z</time>
      </trkpt>
      <trkpt lat="43.06858" lon="0.44204">
        <ele>488.465703</ele>
        <time>2022-08-09T17:08:47.626Z</time>
      </trkpt>
      <trkpt lat="43.0683" lon="0.44204">
        <ele>488.483531</ele>
        <time>2022-08-09T17:08:53.356Z</time>
      </trkpt>
      <trkpt lat="43.0679" lon="0.44188">
        <ele>488.510131</ele>
        <time>2022-08-09T17:09:01.961Z</time>
      </trkpt>
      <trkpt lat="43.06698" lon="0.44076">
        <ele>488.555714</ele>
        <time>2022-08-09T17:09:26.888Z</time>
      </trkpt>
      <trkpt lat="43.06686" lon="0.44068">
        <ele>488.555714</ele>
        <time>2022-08-09T17:09:29.540Z</time>
      </trkpt>
      <trkpt lat="43.06652" lon="0.44045">
        <ele>488.555714</ele>
        <time>2022-08-09T17:09:37.345Z</time>
      </trkpt>
      <trkpt lat="43.06652" lon="0.44045">
        <ele>488.555714</ele>
        <time>2022-08-09T17:09:37.352Z</time>
      </trkpt>
      <trkpt lat="43.06652" lon="0.44045">
        <ele>488.555714</ele>
        <time>2022-08-09T17:09:37.396Z</time>
      </trkpt>
      <trkpt lat="43.06649" lon="0.44042">
        <ele>488.555714</ele>
        <time>2022-08-09T17:09:38.141Z</time>
      </trkpt>
      <trkpt lat="43.06646" lon="0.44039">
        <ele>488.555714</ele>
        <time>2022-08-09T17:09:38.853Z</time>
      </trkpt>
      <trkpt lat="43.06644" lon="0.44034">
        <ele>488.555714</ele>
        <time>2022-08-09T17:09:39.503Z</time>
      </trkpt>
      <trkpt lat="43.06643" lon="0.4403">
        <ele>488.555714</ele>
        <time>2022-08-09T17:09:40.103Z</time>
      </trkpt>
      <trkpt lat="43.06644" lon="0.44026">
        <ele>488.555714</ele>
        <time>2022-08-09T17:09:40.700Z</time>
      </trkpt>
      <trkpt lat="43.06645" lon="0.44022">
        <ele>488.555714</ele>
        <time>2022-08-09T17:09:41.268Z</time>
      </trkpt>
      <trkpt lat="43.06646" lon="0.44018">
        <ele>488.555714</ele>
        <time>2022-08-09T17:09:41.853Z</time>
      </trkpt>
      <trkpt lat="43.06648" lon="0.44014">
        <ele>488.555714</ele>
        <time>2022-08-09T17:09:42.439Z</time>
      </trkpt>
      <trkpt lat="43.06649" lon="0.44009">
        <ele>488.555714</ele>
        <time>2022-08-09T17:09:43.101Z</time>
      </trkpt>
      <trkpt lat="43.06649" lon="0.44005">
        <ele>488.555714</ele>
        <time>2022-08-09T17:09:43.729Z</time>
      </trkpt>
      <trkpt lat="43.0665" lon="0.44">
        <ele>488.555714</ele>
        <time>2022-08-09T17:09:44.356Z</time>
      </trkpt>
      <trkpt lat="43.06651" lon="0.43996">
        <ele>488.555714</ele>
        <time>2022-08-09T17:09:44.967Z</time>
      </trkpt>
      <trkpt lat="43.06652" lon="0.43992">
        <ele>488.555714</ele>
        <time>2022-08-09T17:09:45.510Z</time>
      </trkpt>
      <trkpt lat="43.06653" lon="0.43988">
        <ele>488.555714</ele>
        <time>2022-08-09T17:09:46.041Z</time>
      </trkpt>
      <trkpt lat="43.06653" lon="0.43985">
        <ele>488.555714</ele>
        <time>2022-08-09T17:09:46.567Z</time>
      </trkpt>
      <trkpt lat="43.06654" lon="0.43982">
        <ele>488.555714</ele>
        <time>2022-08-09T17:09:46.994Z</time>
      </trkpt>
      <trkpt lat="43.06654" lon="0.43979">
        <ele>488.555714</ele>
        <time>2022-08-09T17:09:47.323Z</time>
      </trkpt>
      <trkpt lat="43.06654" lon="0.43978">
        <ele>488.555714</ele>
        <time>2022-08-09T17:09:47.527Z</time>
      </trkpt>
      <trkpt lat="43.06654" lon="0.43977">
        <ele>488.555714</ele>
        <time>2022-08-09T17:09:47.628Z</time>
      </trkpt>
    </trkseg>
  </trk>
</gpx>